<?xml version="1.0" encoding="UTF-8" standalone="no" ?>
<gpx xmlns="http://www.topografix.com/GPX/1/1" xmlns:xsi="http://www.w3.org/2001/XMLSchema-instance" xsi:schemaLocation="http://www.topografix.com/GPX/1/1 http://www.topografix.com/GPX/1/1/gpx.xsd" version="1.1" creator="VisuGPX - https://www.visugpx.com">
  <metadata>
    <name> La Mélézine avec télécabine</name>
    <desc><![CDATA[Un parcours ludique  pour tous les publics]]></desc>
  </metadata>
  <trk>
    <name><![CDATA[La Mélèzine Téléphérique]]></name>
    <trkseg>
      <trkpt lat="44.90023" lon="6.63395">
        <ele>1224.0709228516</ele>
        <time>2013-08-01T14:52:45Z</time>
      </trkpt>
      <trkpt lat="44.89978" lon="6.63311">
        <ele>1224.0059814453</ele>
        <time>2013-08-01T14:53:10Z</time>
      </trkpt>
      <trkpt lat="44.89921" lon="6.63346">
        <ele>1220.2316894531</ele>
        <time>2013-08-01T14:53:40Z</time>
      </trkpt>
      <trkpt lat="44.89878" lon="6.63382">
        <ele>1219</ele>
        <time>2013-08-01T14:54:12Z</time>
      </trkpt>
      <trkpt lat="44.89871" lon="6.63382">
        <ele>1219</ele>
        <time>2013-08-01T14:54:27Z</time>
      </trkpt>
      <trkpt lat="44.89862" lon="6.63367">
        <ele>1219</ele>
        <time>2013-08-01T14:54:36Z</time>
      </trkpt>
      <trkpt lat="44.89861" lon="6.63332">
        <ele>1216.9262695312</ele>
        <time>2013-08-01T14:54:45Z</time>
      </trkpt>
      <trkpt lat="44.89859" lon="6.63302">
        <ele>1215.5531005859</ele>
        <time>2013-08-01T14:54:51Z</time>
      </trkpt>
      <trkpt lat="44.89855" lon="6.6327">
        <ele>1213.2268066406</ele>
        <time>2013-08-01T14:54:57Z</time>
      </trkpt>
      <trkpt lat="44.89857" lon="6.63252">
        <ele>1212.0147705078</ele>
        <time>2013-08-01T14:55:03Z</time>
      </trkpt>
      <trkpt lat="44.89885" lon="6.63227">
        <ele>1216.2517089844</ele>
        <time>2013-08-01T14:55:10Z</time>
      </trkpt>
      <trkpt lat="44.89914" lon="6.632">
        <ele>1218.7690429688</ele>
        <time>2013-08-01T14:55:17Z</time>
      </trkpt>
      <trkpt lat="44.89941" lon="6.63176">
        <ele>1225.4244384766</ele>
        <time>2013-08-01T14:55:27Z</time>
      </trkpt>
      <trkpt lat="44.89951" lon="6.63165">
        <ele>1227.8032226562</ele>
        <time>2013-08-01T14:55:49Z</time>
      </trkpt>
      <trkpt lat="44.89902" lon="6.63149">
        <ele>1214.4979248047</ele>
        <time>2013-08-01T14:56:58Z</time>
      </trkpt>
      <trkpt lat="44.89834" lon="6.63135">
        <ele>1210</ele>
        <time>2013-08-01T14:57:47Z</time>
      </trkpt>
      <trkpt lat="44.89762" lon="6.63099">
        <ele>1210</ele>
        <time>2013-08-01T14:58:26Z</time>
      </trkpt>
      <trkpt lat="44.89685" lon="6.63088">
        <ele>1210</ele>
        <time>2013-08-01T14:59:03Z</time>
      </trkpt>
      <trkpt lat="44.89685" lon="6.63057">
        <ele>1210</ele>
        <time>2013-08-01T14:59:10Z</time>
      </trkpt>
      <trkpt lat="44.89834" lon="6.61506">
        <ele>1632.9763183594</ele>
        <time>2013-08-01T15:09:26Z</time>
      </trkpt>
      <trkpt lat="44.89846" lon="6.61474">
        <ele>1639.5565185547</ele>
        <time>2013-08-01T15:09:34Z</time>
      </trkpt>
      <trkpt lat="44.89874" lon="6.61498">
        <ele>1634.4907226562</ele>
        <time>2013-08-01T15:09:55Z</time>
      </trkpt>
      <trkpt lat="44.89907" lon="6.61507">
        <ele>1632.4497070312</ele>
        <time>2013-08-01T15:10:15Z</time>
      </trkpt>
      <trkpt lat="44.89949" lon="6.61527">
        <ele>1627.4677734375</ele>
        <time>2013-08-01T15:10:33Z</time>
      </trkpt>
      <trkpt lat="44.89942" lon="6.61562">
        <ele>1618.2768554688</ele>
        <time>2013-08-01T15:10:54Z</time>
      </trkpt>
      <trkpt lat="44.89882" lon="6.61577">
        <ele>1615.0109863281</ele>
        <time>2013-08-01T15:11:32Z</time>
      </trkpt>
      <trkpt lat="44.89841" lon="6.61593">
        <ele>1612.6971435547</ele>
        <time>2013-08-01T15:12:39Z</time>
      </trkpt>
      <trkpt lat="44.89821" lon="6.61614">
        <ele>1608.6683349609</ele>
        <time>2013-08-01T15:14:34Z</time>
      </trkpt>
      <trkpt lat="44.89833" lon="6.61638">
        <ele>1600.1916503906</ele>
        <time>2013-08-01T15:15:52Z</time>
      </trkpt>
      <trkpt lat="44.89879" lon="6.61628">
        <ele>1601.6458740234</ele>
        <time>2013-08-01T15:16:05Z</time>
      </trkpt>
      <trkpt lat="44.89939" lon="6.61615">
        <ele>1603.1384277344</ele>
        <time>2013-08-01T15:16:15Z</time>
      </trkpt>
      <trkpt lat="44.9001" lon="6.61615">
        <ele>1594.0772705078</ele>
        <time>2013-08-01T15:16:28Z</time>
      </trkpt>
      <trkpt lat="44.90055" lon="6.61631">
        <ele>1585.7918701172</ele>
        <time>2013-08-01T15:16:36Z</time>
      </trkpt>
      <trkpt lat="44.90044" lon="6.61653">
        <ele>1581.0791015625</ele>
        <time>2013-08-01T15:16:48Z</time>
      </trkpt>
      <trkpt lat="44.90056" lon="6.61631">
        <ele>1585.6776123047</ele>
        <time>2013-08-01T15:16:55Z</time>
      </trkpt>
      <trkpt lat="44.90085" lon="6.6161">
        <ele>1588.1262207031</ele>
        <time>2013-08-01T15:17:02Z</time>
      </trkpt>
      <trkpt lat="44.90129" lon="6.61574">
        <ele>1590.3012695312</ele>
        <time>2013-08-01T15:17:17Z</time>
      </trkpt>
      <trkpt lat="44.90154" lon="6.61558">
        <ele>1591.9100341797</ele>
        <time>2013-08-01T15:17:23Z</time>
      </trkpt>
      <trkpt lat="44.9019" lon="6.6156">
        <ele>1586.7976074219</ele>
        <time>2013-08-01T15:17:30Z</time>
      </trkpt>
      <trkpt lat="44.90205" lon="6.61516">
        <ele>1592.1320800781</ele>
        <time>2013-08-01T15:17:39Z</time>
      </trkpt>
      <trkpt lat="44.90219" lon="6.6148">
        <ele>1593.4356689453</ele>
        <time>2013-08-01T15:17:47Z</time>
      </trkpt>
      <trkpt lat="44.90274" lon="6.61467">
        <ele>1588.9290771484</ele>
        <time>2013-08-01T15:18:04Z</time>
      </trkpt>
      <trkpt lat="44.90297" lon="6.6145">
        <ele>1588.9627685547</ele>
        <time>2013-08-01T15:18:11Z</time>
      </trkpt>
      <trkpt lat="44.90301" lon="6.614">
        <ele>1594.7513427734</ele>
        <time>2013-08-01T15:18:23Z</time>
      </trkpt>
      <trkpt lat="44.90301" lon="6.61361">
        <ele>1600.3032226562</ele>
        <time>2013-08-01T15:18:31Z</time>
      </trkpt>
      <trkpt lat="44.90345" lon="6.6135">
        <ele>1595.9777832031</ele>
        <time>2013-08-01T15:18:49Z</time>
      </trkpt>
      <trkpt lat="44.90384" lon="6.6129">
        <ele>1601.4509277344</ele>
        <time>2013-08-01T15:19:07Z</time>
      </trkpt>
      <trkpt lat="44.90425" lon="6.61241">
        <ele>1605.1628417969</ele>
        <time>2013-08-01T15:19:26Z</time>
      </trkpt>
      <trkpt lat="44.90464" lon="6.61233">
        <ele>1603.5234375</ele>
        <time>2013-08-01T15:19:39Z</time>
      </trkpt>
      <trkpt lat="44.90514" lon="6.61222">
        <ele>1602.1096191406</ele>
        <time>2013-08-01T15:19:58Z</time>
      </trkpt>
      <trkpt lat="44.90568" lon="6.61179">
        <ele>1606.4195556641</ele>
        <time>2013-08-01T15:20:16Z</time>
      </trkpt>
      <trkpt lat="44.906" lon="6.61137">
        <ele>1612.8928222656</ele>
        <time>2013-08-01T15:20:31Z</time>
      </trkpt>
      <trkpt lat="44.90651" lon="6.61098">
        <ele>1613.537109375</ele>
        <time>2013-08-01T15:20:50Z</time>
      </trkpt>
      <trkpt lat="44.90709" lon="6.61064">
        <ele>1612.9608154297</ele>
        <time>2013-08-01T15:21:01Z</time>
      </trkpt>
      <trkpt lat="44.90717" lon="6.61037">
        <ele>1619.8947753906</ele>
        <time>2013-08-01T15:21:08Z</time>
      </trkpt>
      <trkpt lat="44.9076" lon="6.61013">
        <ele>1619.3903808594</ele>
        <time>2013-08-01T15:21:22Z</time>
      </trkpt>
      <trkpt lat="44.90811" lon="6.60978">
        <ele>1618.7655029297</ele>
        <time>2013-08-01T15:21:38Z</time>
      </trkpt>
      <trkpt lat="44.90866" lon="6.60963">
        <ele>1612.53515625</ele>
        <time>2013-08-01T15:21:53Z</time>
      </trkpt>
      <trkpt lat="44.90908" lon="6.60915">
        <ele>1616.5047607422</ele>
        <time>2013-08-01T15:22:05Z</time>
      </trkpt>
      <trkpt lat="44.90954" lon="6.60887">
        <ele>1622.6337890625</ele>
        <time>2013-08-01T15:22:18Z</time>
      </trkpt>
      <trkpt lat="44.91031" lon="6.60845">
        <ele>1628.1389160156</ele>
        <time>2013-08-01T15:22:42Z</time>
      </trkpt>
      <trkpt lat="44.91072" lon="6.60801">
        <ele>1629.7176513672</ele>
        <time>2013-08-01T15:22:56Z</time>
      </trkpt>
      <trkpt lat="44.91112" lon="6.60719">
        <ele>1634.1490478516</ele>
        <time>2013-08-01T15:23:21Z</time>
      </trkpt>
      <trkpt lat="44.91135" lon="6.60653">
        <ele>1635.3216552734</ele>
        <time>2013-08-01T15:23:39Z</time>
      </trkpt>
      <trkpt lat="44.91178" lon="6.60566">
        <ele>1631.6785888672</ele>
        <time>2013-08-01T15:24:05Z</time>
      </trkpt>
      <trkpt lat="44.91245" lon="6.60473">
        <ele>1638.9333496094</ele>
        <time>2013-08-01T15:24:45Z</time>
      </trkpt>
      <trkpt lat="44.91289" lon="6.60426">
        <ele>1629.1540527344</ele>
        <time>2013-08-01T15:25:07Z</time>
      </trkpt>
      <trkpt lat="44.91319" lon="6.60341">
        <ele>1631.2006835938</ele>
        <time>2013-08-01T15:25:41Z</time>
      </trkpt>
      <trkpt lat="44.91312" lon="6.60272">
        <ele>1643.8001708984</ele>
        <time>2013-08-01T15:25:56Z</time>
      </trkpt>
      <trkpt lat="44.91306" lon="6.60221">
        <ele>1652.9943847656</ele>
        <time>2013-08-01T15:26:03Z</time>
      </trkpt>
      <trkpt lat="44.91345" lon="6.60208">
        <ele>1641.1135253906</ele>
        <time>2013-08-01T15:26:19Z</time>
      </trkpt>
      <trkpt lat="44.91352" lon="6.60156">
        <ele>1646.5623779297</ele>
        <time>2013-08-01T15:26:32Z</time>
      </trkpt>
      <trkpt lat="44.9139" lon="6.6013">
        <ele>1632.6643066406</ele>
        <time>2013-08-01T15:26:49Z</time>
      </trkpt>
      <trkpt lat="44.9142" lon="6.60067">
        <ele>1641.4493408203</ele>
        <time>2013-08-01T15:27:07Z</time>
      </trkpt>
      <trkpt lat="44.91455" lon="6.60006">
        <ele>1646.7125244141</ele>
        <time>2013-08-01T15:27:28Z</time>
      </trkpt>
      <trkpt lat="44.91469" lon="6.59963">
        <ele>1656.2604980469</ele>
        <time>2013-08-01T15:27:42Z</time>
      </trkpt>
      <trkpt lat="44.91519" lon="6.59932">
        <ele>1651.1928710938</ele>
        <time>2013-08-01T15:28:00Z</time>
      </trkpt>
      <trkpt lat="44.91503" lon="6.59944">
        <ele>1649.6546630859</ele>
        <time>2013-08-01T15:28:10Z</time>
      </trkpt>
      <trkpt lat="44.91502" lon="6.59944">
        <ele>1649.9387207031</ele>
        <time>2013-08-01T15:28:11Z</time>
      </trkpt>
      <trkpt lat="44.91502" lon="6.5993">
        <ele>1655.009765625</ele>
        <time>2013-08-01T15:28:17Z</time>
      </trkpt>
      <trkpt lat="44.91505" lon="6.59926">
        <ele>1655.8159179688</ele>
        <time>2013-08-01T15:28:19Z</time>
      </trkpt>
      <trkpt lat="44.91515" lon="6.59913">
        <ele>1658.0295410156</ele>
        <time>2013-08-01T15:28:26Z</time>
      </trkpt>
      <trkpt lat="44.91524" lon="6.59899">
        <ele>1660.5352783203</ele>
        <time>2013-08-01T15:28:33Z</time>
      </trkpt>
      <trkpt lat="44.91532" lon="6.59888">
        <ele>1662.4995117188</ele>
        <time>2013-08-01T15:28:39Z</time>
      </trkpt>
      <trkpt lat="44.91533" lon="6.59883">
        <ele>1663.6101074219</ele>
        <time>2013-08-01T15:28:41Z</time>
      </trkpt>
      <trkpt lat="44.9155" lon="6.59865">
        <ele>1665.3493652344</ele>
        <time>2013-08-01T15:28:51Z</time>
      </trkpt>
      <trkpt lat="44.91557" lon="6.59849">
        <ele>1668.30078125</ele>
        <time>2013-08-01T15:28:58Z</time>
      </trkpt>
      <trkpt lat="44.91566" lon="6.5983">
        <ele>1671.5452880859</ele>
        <time>2013-08-01T15:29:06Z</time>
      </trkpt>
      <trkpt lat="44.91577" lon="6.59807">
        <ele>1675.3922119141</ele>
        <time>2013-08-01T15:29:17Z</time>
      </trkpt>
      <trkpt lat="44.91586" lon="6.59796">
        <ele>1675.9959716797</ele>
        <time>2013-08-01T15:29:23Z</time>
      </trkpt>
      <trkpt lat="44.91597" lon="6.59787">
        <ele>1674.3356933594</ele>
        <time>2013-08-01T15:29:30Z</time>
      </trkpt>
      <trkpt lat="44.91612" lon="6.59776">
        <ele>1672.4638671875</ele>
        <time>2013-08-01T15:29:38Z</time>
      </trkpt>
      <trkpt lat="44.91624" lon="6.59766">
        <ele>1671.9104003906</ele>
        <time>2013-08-01T15:29:44Z</time>
      </trkpt>
      <trkpt lat="44.91634" lon="6.59757">
        <ele>1671.4445800781</ele>
        <time>2013-08-01T15:29:50Z</time>
      </trkpt>
      <trkpt lat="44.91642" lon="6.59745">
        <ele>1671.5405273438</ele>
        <time>2013-08-01T15:29:55Z</time>
      </trkpt>
      <trkpt lat="44.91649" lon="6.59726">
        <ele>1671.0087890625</ele>
        <time>2013-08-01T15:30:02Z</time>
      </trkpt>
      <trkpt lat="44.91656" lon="6.59702">
        <ele>1670.8540039062</ele>
        <time>2013-08-01T15:30:12Z</time>
      </trkpt>
      <trkpt lat="44.91654" lon="6.59685">
        <ele>1676.1029052734</ele>
        <time>2013-08-01T15:30:19Z</time>
      </trkpt>
      <trkpt lat="44.91654" lon="6.59669">
        <ele>1679.9399414062</ele>
        <time>2013-08-01T15:30:26Z</time>
      </trkpt>
      <trkpt lat="44.91657" lon="6.59656">
        <ele>1681.9234619141</ele>
        <time>2013-08-01T15:30:32Z</time>
      </trkpt>
      <trkpt lat="44.91652" lon="6.59645">
        <ele>1687.4122314453</ele>
        <time>2013-08-01T15:30:36Z</time>
      </trkpt>
      <trkpt lat="44.91658" lon="6.59635">
        <ele>1688.0317382812</ele>
        <time>2013-08-01T15:30:41Z</time>
      </trkpt>
      <trkpt lat="44.91676" lon="6.59628">
        <ele>1684.8723144531</ele>
        <time>2013-08-01T15:30:48Z</time>
      </trkpt>
      <trkpt lat="44.91687" lon="6.59623">
        <ele>1682.4564208984</ele>
        <time>2013-08-01T15:30:54Z</time>
      </trkpt>
      <trkpt lat="44.917" lon="6.59615">
        <ele>1681.1368408203</ele>
        <time>2013-08-01T15:31:01Z</time>
      </trkpt>
      <trkpt lat="44.91706" lon="6.59603">
        <ele>1683.2457275391</ele>
        <time>2013-08-01T15:31:07Z</time>
      </trkpt>
      <trkpt lat="44.91714" lon="6.59591">
        <ele>1684.7197265625</ele>
        <time>2013-08-01T15:31:13Z</time>
      </trkpt>
      <trkpt lat="44.91726" lon="6.59576">
        <ele>1685.2337646484</ele>
        <time>2013-08-01T15:31:20Z</time>
      </trkpt>
      <trkpt lat="44.91735" lon="6.59565">
        <ele>1687.0587158203</ele>
        <time>2013-08-01T15:31:26Z</time>
      </trkpt>
      <trkpt lat="44.91749" lon="6.59545">
        <ele>1689.8709716797</ele>
        <time>2013-08-01T15:31:34Z</time>
      </trkpt>
      <trkpt lat="44.91757" lon="6.59531">
        <ele>1692.1966552734</ele>
        <time>2013-08-01T15:31:40Z</time>
      </trkpt>
      <trkpt lat="44.91771" lon="6.59522">
        <ele>1692.9385986328</ele>
        <time>2013-08-01T15:31:47Z</time>
      </trkpt>
      <trkpt lat="44.91784" lon="6.59512">
        <ele>1694.3308105469</ele>
        <time>2013-08-01T15:31:56Z</time>
      </trkpt>
      <trkpt lat="44.91797" lon="6.59499">
        <ele>1696.3728027344</ele>
        <time>2013-08-01T15:32:04Z</time>
      </trkpt>
      <trkpt lat="44.91814" lon="6.59487">
        <ele>1697.2785644531</ele>
        <time>2013-08-01T15:32:12Z</time>
      </trkpt>
      <trkpt lat="44.91825" lon="6.59478">
        <ele>1697.1812744141</ele>
        <time>2013-08-01T15:32:17Z</time>
      </trkpt>
      <trkpt lat="44.91832" lon="6.59468">
        <ele>1698.3226318359</ele>
        <time>2013-08-01T15:32:23Z</time>
      </trkpt>
      <trkpt lat="44.9184" lon="6.59461">
        <ele>1696.9083251953</ele>
        <time>2013-08-01T15:32:27Z</time>
      </trkpt>
      <trkpt lat="44.91845" lon="6.59456">
        <ele>1695.9393310547</ele>
        <time>2013-08-01T15:32:31Z</time>
      </trkpt>
      <trkpt lat="44.91852" lon="6.59443">
        <ele>1695.5621337891</ele>
        <time>2013-08-01T15:32:37Z</time>
      </trkpt>
      <trkpt lat="44.91862" lon="6.59429">
        <ele>1693.8958740234</ele>
        <time>2013-08-01T15:32:43Z</time>
      </trkpt>
      <trkpt lat="44.91868" lon="6.59414">
        <ele>1695.2390136719</ele>
        <time>2013-08-01T15:32:48Z</time>
      </trkpt>
      <trkpt lat="44.91873" lon="6.59392">
        <ele>1698.0130615234</ele>
        <time>2013-08-01T15:32:56Z</time>
      </trkpt>
      <trkpt lat="44.91876" lon="6.59377">
        <ele>1700.6400146484</ele>
        <time>2013-08-01T15:33:02Z</time>
      </trkpt>
      <trkpt lat="44.91873" lon="6.59356">
        <ele>1706.7606201172</ele>
        <time>2013-08-01T15:33:09Z</time>
      </trkpt>
      <trkpt lat="44.91875" lon="6.59349">
        <ele>1707.7629394531</ele>
        <time>2013-08-01T15:33:12Z</time>
      </trkpt>
      <trkpt lat="44.91881" lon="6.59332">
        <ele>1709.9228515625</ele>
        <time>2013-08-01T15:33:19Z</time>
      </trkpt>
      <trkpt lat="44.91888" lon="6.59321">
        <ele>1710.4697265625</ele>
        <time>2013-08-01T15:33:25Z</time>
      </trkpt>
      <trkpt lat="44.9189" lon="6.59319">
        <ele>1710.6169433594</ele>
        <time>2013-08-01T15:33:26Z</time>
      </trkpt>
      <trkpt lat="44.91897" lon="6.59305">
        <ele>1713.0891113281</ele>
        <time>2013-08-01T15:33:33Z</time>
      </trkpt>
      <trkpt lat="44.91896" lon="6.59297">
        <ele>1715.4084472656</ele>
        <time>2013-08-01T15:33:37Z</time>
      </trkpt>
      <trkpt lat="44.91889" lon="6.59297">
        <ele>1716.6263427734</ele>
        <time>2013-08-01T15:33:42Z</time>
      </trkpt>
      <trkpt lat="44.91876" lon="6.59308">
        <ele>1717.0705566406</ele>
        <time>2013-08-01T15:33:50Z</time>
      </trkpt>
      <trkpt lat="44.91866" lon="6.59321">
        <ele>1717.0388183594</ele>
        <time>2013-08-01T15:33:57Z</time>
      </trkpt>
      <trkpt lat="44.91856" lon="6.59335">
        <ele>1717.5012207031</ele>
        <time>2013-08-01T15:34:05Z</time>
      </trkpt>
      <trkpt lat="44.91843" lon="6.59348">
        <ele>1718.8980712891</ele>
        <time>2013-08-01T15:34:13Z</time>
      </trkpt>
      <trkpt lat="44.9183" lon="6.59353">
        <ele>1722.2076416016</ele>
        <time>2013-08-01T15:34:19Z</time>
      </trkpt>
      <trkpt lat="44.91812" lon="6.59364">
        <ele>1726.8464355469</ele>
        <time>2013-08-01T15:34:29Z</time>
      </trkpt>
      <trkpt lat="44.91798" lon="6.59372">
        <ele>1729.0482177734</ele>
        <time>2013-08-01T15:34:37Z</time>
      </trkpt>
      <trkpt lat="44.91794" lon="6.59375">
        <ele>1729.3991699219</ele>
        <time>2013-08-01T15:34:40Z</time>
      </trkpt>
      <trkpt lat="44.91783" lon="6.59384">
        <ele>1730.1264648438</ele>
        <time>2013-08-01T15:34:48Z</time>
      </trkpt>
      <trkpt lat="44.91782" lon="6.59386">
        <ele>1729.810546875</ele>
        <time>2013-08-01T15:34:49Z</time>
      </trkpt>
      <trkpt lat="44.91771" lon="6.59399">
        <ele>1729.5819091797</ele>
        <time>2013-08-01T15:34:58Z</time>
      </trkpt>
      <trkpt lat="44.9176" lon="6.59406">
        <ele>1732.0435791016</ele>
        <time>2013-08-01T15:35:06Z</time>
      </trkpt>
      <trkpt lat="44.91752" lon="6.59419">
        <ele>1731.1065673828</ele>
        <time>2013-08-01T15:35:14Z</time>
      </trkpt>
      <trkpt lat="44.91745" lon="6.59425">
        <ele>1731.5541992188</ele>
        <time>2013-08-01T15:35:20Z</time>
      </trkpt>
      <trkpt lat="44.91742" lon="6.59422">
        <ele>1734.0776367188</ele>
        <time>2013-08-01T15:35:24Z</time>
      </trkpt>
      <trkpt lat="44.91743" lon="6.5941">
        <ele>1737.6478271484</ele>
        <time>2013-08-01T15:35:30Z</time>
      </trkpt>
      <trkpt lat="44.91747" lon="6.59403">
        <ele>1738.3997802734</ele>
        <time>2013-08-01T15:35:34Z</time>
      </trkpt>
      <trkpt lat="44.91757" lon="6.59387">
        <ele>1739.5799560547</ele>
        <time>2013-08-01T15:35:43Z</time>
      </trkpt>
      <trkpt lat="44.91766" lon="6.59368">
        <ele>1742.1239013672</ele>
        <time>2013-08-01T15:35:51Z</time>
      </trkpt>
      <trkpt lat="44.91774" lon="6.59351">
        <ele>1743.7652587891</ele>
        <time>2013-08-01T15:35:59Z</time>
      </trkpt>
      <trkpt lat="44.91782" lon="6.59337">
        <ele>1743.7899169922</ele>
        <time>2013-08-01T15:36:06Z</time>
      </trkpt>
      <trkpt lat="44.91788" lon="6.59325">
        <ele>1744.4753417969</ele>
        <time>2013-08-01T15:36:12Z</time>
      </trkpt>
      <trkpt lat="44.91796" lon="6.59313">
        <ele>1744.6979980469</ele>
        <time>2013-08-01T15:36:18Z</time>
      </trkpt>
      <trkpt lat="44.918" lon="6.59301">
        <ele>1746.0776367188</ele>
        <time>2013-08-01T15:36:24Z</time>
      </trkpt>
      <trkpt lat="44.91809" lon="6.59291">
        <ele>1745.9794921875</ele>
        <time>2013-08-01T15:36:30Z</time>
      </trkpt>
      <trkpt lat="44.91812" lon="6.59275">
        <ele>1749.0250244141</ele>
        <time>2013-08-01T15:36:37Z</time>
      </trkpt>
      <trkpt lat="44.91818" lon="6.59268">
        <ele>1748.9595947266</ele>
        <time>2013-08-01T15:36:41Z</time>
      </trkpt>
      <trkpt lat="44.91827" lon="6.59254">
        <ele>1749.6970214844</ele>
        <time>2013-08-01T15:36:48Z</time>
      </trkpt>
      <trkpt lat="44.91835" lon="6.59239">
        <ele>1751.9000244141</ele>
        <time>2013-08-01T15:36:55Z</time>
      </trkpt>
      <trkpt lat="44.91835" lon="6.59223">
        <ele>1756.8275146484</ele>
        <time>2013-08-01T15:37:01Z</time>
      </trkpt>
      <trkpt lat="44.91836" lon="6.59221">
        <ele>1756.9752197266</ele>
        <time>2013-08-01T15:37:02Z</time>
      </trkpt>
      <trkpt lat="44.91837" lon="6.59206">
        <ele>1759.3247070312</ele>
        <time>2013-08-01T15:37:08Z</time>
      </trkpt>
      <trkpt lat="44.91838" lon="6.59202">
        <ele>1760.1479492188</ele>
        <time>2013-08-01T15:37:10Z</time>
      </trkpt>
      <trkpt lat="44.91839" lon="6.5919">
        <ele>1761.9975585938</ele>
        <time>2013-08-01T15:37:15Z</time>
      </trkpt>
      <trkpt lat="44.91845" lon="6.59183">
        <ele>1761.5134277344</ele>
        <time>2013-08-01T15:37:18Z</time>
      </trkpt>
      <trkpt lat="44.91852" lon="6.59171">
        <ele>1762.4405517578</ele>
        <time>2013-08-01T15:37:24Z</time>
      </trkpt>
      <trkpt lat="44.91855" lon="6.59168">
        <ele>1762.5489501953</ele>
        <time>2013-08-01T15:37:26Z</time>
      </trkpt>
      <trkpt lat="44.91862" lon="6.59156">
        <ele>1762.2983398438</ele>
        <time>2013-08-01T15:37:31Z</time>
      </trkpt>
      <trkpt lat="44.91873" lon="6.59144">
        <ele>1757.361328125</ele>
        <time>2013-08-01T15:37:38Z</time>
      </trkpt>
      <trkpt lat="44.9188" lon="6.5913">
        <ele>1754.7468261719</ele>
        <time>2013-08-01T15:37:44Z</time>
      </trkpt>
      <trkpt lat="44.91893" lon="6.5911">
        <ele>1751.6203613281</ele>
        <time>2013-08-01T15:37:49Z</time>
      </trkpt>
      <trkpt lat="44.91857" lon="6.59139">
        <ele>1765.6530761719</ele>
        <time>2013-08-01T15:37:51Z</time>
      </trkpt>
      <trkpt lat="44.91891" lon="6.59115">
        <ele>1751.2485351562</ele>
        <time>2013-08-01T15:37:53Z</time>
      </trkpt>
      <trkpt lat="44.91907" lon="6.59083">
        <ele>1752.7685546875</ele>
        <time>2013-08-01T15:37:55Z</time>
      </trkpt>
      <trkpt lat="44.91915" lon="6.59069">
        <ele>1753.3178710938</ele>
        <time>2013-08-01T15:37:58Z</time>
      </trkpt>
      <trkpt lat="44.91923" lon="6.59062">
        <ele>1753.3996582031</ele>
        <time>2013-08-01T15:38:00Z</time>
      </trkpt>
      <trkpt lat="44.91952" lon="6.59038">
        <ele>1753.8051757812</ele>
        <time>2013-08-01T15:38:07Z</time>
      </trkpt>
      <trkpt lat="44.91969" lon="6.59028">
        <ele>1754.2623291016</ele>
        <time>2013-08-01T15:38:11Z</time>
      </trkpt>
      <trkpt lat="44.92004" lon="6.59019">
        <ele>1750.8957519531</ele>
        <time>2013-08-01T15:38:18Z</time>
      </trkpt>
      <trkpt lat="44.92019" lon="6.59017">
        <ele>1748.6772460938</ele>
        <time>2013-08-01T15:38:21Z</time>
      </trkpt>
      <trkpt lat="44.92054" lon="6.59001">
        <ele>1745.0964355469</ele>
        <time>2013-08-01T15:38:27Z</time>
      </trkpt>
      <trkpt lat="44.92072" lon="6.58991">
        <ele>1742.7878417969</ele>
        <time>2013-08-01T15:38:30Z</time>
      </trkpt>
      <trkpt lat="44.92092" lon="6.58968">
        <ele>1740.5262451172</ele>
        <time>2013-08-01T15:38:34Z</time>
      </trkpt>
      <trkpt lat="44.92106" lon="6.58937">
        <ele>1740.4132080078</ele>
        <time>2013-08-01T15:38:39Z</time>
      </trkpt>
      <trkpt lat="44.92126" lon="6.58917">
        <ele>1737.7962646484</ele>
        <time>2013-08-01T15:38:44Z</time>
      </trkpt>
      <trkpt lat="44.9216" lon="6.58884">
        <ele>1731.9484863281</ele>
        <time>2013-08-01T15:38:51Z</time>
      </trkpt>
      <trkpt lat="44.92173" lon="6.58871">
        <ele>1727.5310058594</ele>
        <time>2013-08-01T15:38:54Z</time>
      </trkpt>
      <trkpt lat="44.92187" lon="6.58852">
        <ele>1723.6741943359</ele>
        <time>2013-08-01T15:38:58Z</time>
      </trkpt>
      <trkpt lat="44.92202" lon="6.58813">
        <ele>1720.4976806641</ele>
        <time>2013-08-01T15:39:04Z</time>
      </trkpt>
      <trkpt lat="44.92205" lon="6.58806">
        <ele>1719.7801513672</ele>
        <time>2013-08-01T15:39:05Z</time>
      </trkpt>
      <trkpt lat="44.92212" lon="6.58764">
        <ele>1719.9415283203</ele>
        <time>2013-08-01T15:39:11Z</time>
      </trkpt>
      <trkpt lat="44.92214" lon="6.5875">
        <ele>1720.1440429688</ele>
        <time>2013-08-01T15:39:13Z</time>
      </trkpt>
      <trkpt lat="44.92215" lon="6.58713">
        <ele>1717.3568115234</ele>
        <time>2013-08-01T15:39:19Z</time>
      </trkpt>
      <trkpt lat="44.92217" lon="6.58705">
        <ele>1715.9583740234</ele>
        <time>2013-08-01T15:39:21Z</time>
      </trkpt>
      <trkpt lat="44.92224" lon="6.58679">
        <ele>1710.3635253906</ele>
        <time>2013-08-01T15:39:27Z</time>
      </trkpt>
      <trkpt lat="44.92223" lon="6.58659">
        <ele>1708.7911376953</ele>
        <time>2013-08-01T15:39:31Z</time>
      </trkpt>
      <trkpt lat="44.9222" lon="6.58638">
        <ele>1707.9868164062</ele>
        <time>2013-08-01T15:39:35Z</time>
      </trkpt>
      <trkpt lat="44.92217" lon="6.586">
        <ele>1706.53515625</ele>
        <time>2013-08-01T15:39:41Z</time>
      </trkpt>
      <trkpt lat="44.92217" lon="6.58593">
        <ele>1706.2666015625</ele>
        <time>2013-08-01T15:39:42Z</time>
      </trkpt>
      <trkpt lat="44.92211" lon="6.58547">
        <ele>1708.9807128906</ele>
        <time>2013-08-01T15:39:47Z</time>
      </trkpt>
      <trkpt lat="44.92221" lon="6.58532">
        <ele>1705.6007080078</ele>
        <time>2013-08-01T15:39:49Z</time>
      </trkpt>
      <trkpt lat="44.92216" lon="6.585">
        <ele>1704.8824462891</ele>
        <time>2013-08-01T15:39:54Z</time>
      </trkpt>
      <trkpt lat="44.92209" lon="6.58481">
        <ele>1708.8912353516</ele>
        <time>2013-08-01T15:39:58Z</time>
      </trkpt>
      <trkpt lat="44.92203" lon="6.58446">
        <ele>1715.0860595703</ele>
        <time>2013-08-01T15:40:04Z</time>
      </trkpt>
      <trkpt lat="44.92226" lon="6.58438">
        <ele>1706.4233398438</ele>
        <time>2013-08-01T15:40:08Z</time>
      </trkpt>
      <trkpt lat="44.92248" lon="6.58425">
        <ele>1698.6143798828</ele>
        <time>2013-08-01T15:40:11Z</time>
      </trkpt>
      <trkpt lat="44.92249" lon="6.58403">
        <ele>1698.7946777344</ele>
        <time>2013-08-01T15:40:14Z</time>
      </trkpt>
      <trkpt lat="44.92249" lon="6.58375">
        <ele>1699.8237304688</ele>
        <time>2013-08-01T15:40:18Z</time>
      </trkpt>
      <trkpt lat="44.92247" lon="6.5835">
        <ele>1701.1440429688</ele>
        <time>2013-08-01T15:40:21Z</time>
      </trkpt>
      <trkpt lat="44.92247" lon="6.5833">
        <ele>1701.3963623047</ele>
        <time>2013-08-01T15:40:24Z</time>
      </trkpt>
      <trkpt lat="44.92266" lon="6.58312">
        <ele>1696.9943847656</ele>
        <time>2013-08-01T15:40:28Z</time>
      </trkpt>
      <trkpt lat="44.92265" lon="6.58299">
        <ele>1697.4846191406</ele>
        <time>2013-08-01T15:40:30Z</time>
      </trkpt>
      <trkpt lat="44.92282" lon="6.58268">
        <ele>1691.4874267578</ele>
        <time>2013-08-01T15:40:34Z</time>
      </trkpt>
      <trkpt lat="44.92285" lon="6.58254">
        <ele>1689.1102294922</ele>
        <time>2013-08-01T15:40:36Z</time>
      </trkpt>
      <trkpt lat="44.92293" lon="6.5821">
        <ele>1682.6735839844</ele>
        <time>2013-08-01T15:40:41Z</time>
      </trkpt>
      <trkpt lat="44.92307" lon="6.58196">
        <ele>1677.8668212891</ele>
        <time>2013-08-01T15:40:43Z</time>
      </trkpt>
      <trkpt lat="44.92333" lon="6.5817">
        <ele>1671.1088867188</ele>
        <time>2013-08-01T15:40:47Z</time>
      </trkpt>
      <trkpt lat="44.9234" lon="6.58141">
        <ele>1667.4638671875</ele>
        <time>2013-08-01T15:40:51Z</time>
      </trkpt>
      <trkpt lat="44.92334" lon="6.58107">
        <ele>1665.17578125</ele>
        <time>2013-08-01T15:40:55Z</time>
      </trkpt>
      <trkpt lat="44.92329" lon="6.58086">
        <ele>1665.3093261719</ele>
        <time>2013-08-01T15:40:58Z</time>
      </trkpt>
      <trkpt lat="44.92323" lon="6.58076">
        <ele>1667.5106201172</ele>
        <time>2013-08-01T15:41:00Z</time>
      </trkpt>
      <trkpt lat="44.92324" lon="6.58053">
        <ele>1666.8977050781</ele>
        <time>2013-08-01T15:41:04Z</time>
      </trkpt>
      <trkpt lat="44.92325" lon="6.58046">
        <ele>1667.2681884766</ele>
        <time>2013-08-01T15:41:05Z</time>
      </trkpt>
      <trkpt lat="44.92326" lon="6.58018">
        <ele>1670.7702636719</ele>
        <time>2013-08-01T15:41:09Z</time>
      </trkpt>
      <trkpt lat="44.92329" lon="6.57982">
        <ele>1674.9361572266</ele>
        <time>2013-08-01T15:41:14Z</time>
      </trkpt>
      <trkpt lat="44.92332" lon="6.57956">
        <ele>1678.4615478516</ele>
        <time>2013-08-01T15:41:18Z</time>
      </trkpt>
      <trkpt lat="44.92346" lon="6.57943">
        <ele>1685.0809326172</ele>
        <time>2013-08-01T15:41:22Z</time>
      </trkpt>
      <trkpt lat="44.92348" lon="6.57941">
        <ele>1686.8743896484</ele>
        <time>2013-08-01T15:41:24Z</time>
      </trkpt>
      <trkpt lat="44.92364" lon="6.5795">
        <ele>1685.7192382812</ele>
        <time>2013-08-01T15:41:31Z</time>
      </trkpt>
      <trkpt lat="44.92385" lon="6.57967">
        <ele>1678.0098876953</ele>
        <time>2013-08-01T15:41:36Z</time>
      </trkpt>
      <trkpt lat="44.92405" lon="6.57975">
        <ele>1675.6528320312</ele>
        <time>2013-08-01T15:41:40Z</time>
      </trkpt>
      <trkpt lat="44.92423" lon="6.57979">
        <ele>1674.6746826172</ele>
        <time>2013-08-01T15:41:43Z</time>
      </trkpt>
      <trkpt lat="44.92441" lon="6.57985">
        <ele>1672.0041503906</ele>
        <time>2013-08-01T15:41:47Z</time>
      </trkpt>
      <trkpt lat="44.92477" lon="6.57995">
        <ele>1667.4812011719</ele>
        <time>2013-08-01T15:41:54Z</time>
      </trkpt>
      <trkpt lat="44.92481" lon="6.57994">
        <ele>1667.4090576172</ele>
        <time>2013-08-01T15:41:55Z</time>
      </trkpt>
      <trkpt lat="44.92496" lon="6.57986">
        <ele>1668.3489990234</ele>
        <time>2013-08-01T15:42:00Z</time>
      </trkpt>
      <trkpt lat="44.92508" lon="6.5798">
        <ele>1668.5014648438</ele>
        <time>2013-08-01T15:42:06Z</time>
      </trkpt>
      <trkpt lat="44.92517" lon="6.57971">
        <ele>1669.4490966797</ele>
        <time>2013-08-01T15:42:13Z</time>
      </trkpt>
      <trkpt lat="44.92537" lon="6.57959">
        <ele>1669.5482177734</ele>
        <time>2013-08-01T15:42:21Z</time>
      </trkpt>
      <trkpt lat="44.9255" lon="6.57947">
        <ele>1669.7453613281</ele>
        <time>2013-08-01T15:42:28Z</time>
      </trkpt>
      <trkpt lat="44.92556" lon="6.57942">
        <ele>1669.6014404297</ele>
        <time>2013-08-01T15:42:31Z</time>
      </trkpt>
      <trkpt lat="44.92564" lon="6.57928">
        <ele>1671.6080322266</ele>
        <time>2013-08-01T15:42:37Z</time>
      </trkpt>
      <trkpt lat="44.92567" lon="6.5792">
        <ele>1672.6629638672</ele>
        <time>2013-08-01T15:42:40Z</time>
      </trkpt>
      <trkpt lat="44.92578" lon="6.57891">
        <ele>1675.4890136719</ele>
        <time>2013-08-01T15:42:50Z</time>
      </trkpt>
      <trkpt lat="44.92588" lon="6.57872">
        <ele>1677.4030761719</ele>
        <time>2013-08-01T15:42:57Z</time>
      </trkpt>
      <trkpt lat="44.92603" lon="6.57858">
        <ele>1677.9406738281</ele>
        <time>2013-08-01T15:43:04Z</time>
      </trkpt>
      <trkpt lat="44.92614" lon="6.57845">
        <ele>1678.9968261719</ele>
        <time>2013-08-01T15:43:10Z</time>
      </trkpt>
      <trkpt lat="44.92618" lon="6.57831">
        <ele>1681.4962158203</ele>
        <time>2013-08-01T15:43:16Z</time>
      </trkpt>
      <trkpt lat="44.92625" lon="6.57816">
        <ele>1683.7758789062</ele>
        <time>2013-08-01T15:43:22Z</time>
      </trkpt>
      <trkpt lat="44.9263" lon="6.57799">
        <ele>1686.6391601562</ele>
        <time>2013-08-01T15:43:29Z</time>
      </trkpt>
      <trkpt lat="44.92641" lon="6.57784">
        <ele>1688.1165771484</ele>
        <time>2013-08-01T15:43:36Z</time>
      </trkpt>
      <trkpt lat="44.92655" lon="6.57765">
        <ele>1689.3411865234</ele>
        <time>2013-08-01T15:43:46Z</time>
      </trkpt>
      <trkpt lat="44.92674" lon="6.57749">
        <ele>1688.8234863281</ele>
        <time>2013-08-01T15:43:56Z</time>
      </trkpt>
      <trkpt lat="44.92694" lon="6.57736">
        <ele>1688.6574707031</ele>
        <time>2013-08-01T15:44:05Z</time>
      </trkpt>
      <trkpt lat="44.92707" lon="6.57724">
        <ele>1688.1240234375</ele>
        <time>2013-08-01T15:44:12Z</time>
      </trkpt>
      <trkpt lat="44.92714" lon="6.57714">
        <ele>1687.9598388672</ele>
        <time>2013-08-01T15:44:18Z</time>
      </trkpt>
      <trkpt lat="44.9272" lon="6.57699">
        <ele>1688.8745117188</ele>
        <time>2013-08-01T15:44:24Z</time>
      </trkpt>
      <trkpt lat="44.92724" lon="6.57678">
        <ele>1692.1011962891</ele>
        <time>2013-08-01T15:44:32Z</time>
      </trkpt>
      <trkpt lat="44.9273" lon="6.57663">
        <ele>1693.4689941406</ele>
        <time>2013-08-01T15:44:39Z</time>
      </trkpt>
      <trkpt lat="44.92739" lon="6.57639">
        <ele>1695.7564697266</ele>
        <time>2013-08-01T15:44:48Z</time>
      </trkpt>
      <trkpt lat="44.92747" lon="6.57614">
        <ele>1698.3048095703</ele>
        <time>2013-08-01T15:44:57Z</time>
      </trkpt>
      <trkpt lat="44.9276" lon="6.57599">
        <ele>1697.7034912109</ele>
        <time>2013-08-01T15:45:05Z</time>
      </trkpt>
      <trkpt lat="44.92768" lon="6.57583">
        <ele>1698.1765136719</ele>
        <time>2013-08-01T15:45:13Z</time>
      </trkpt>
      <trkpt lat="44.92773" lon="6.57567">
        <ele>1699.7957763672</ele>
        <time>2013-08-01T15:45:20Z</time>
      </trkpt>
      <trkpt lat="44.92781" lon="6.57552">
        <ele>1700.6937255859</ele>
        <time>2013-08-01T15:45:27Z</time>
      </trkpt>
      <trkpt lat="44.92785" lon="6.57536">
        <ele>1705.0290527344</ele>
        <time>2013-08-01T15:45:34Z</time>
      </trkpt>
      <trkpt lat="44.9279" lon="6.57525">
        <ele>1706.5534667969</ele>
        <time>2013-08-01T15:45:39Z</time>
      </trkpt>
      <trkpt lat="44.92796" lon="6.5751">
        <ele>1708.5568847656</ele>
        <time>2013-08-01T15:45:46Z</time>
      </trkpt>
      <trkpt lat="44.92804" lon="6.57494">
        <ele>1710.4819335938</ele>
        <time>2013-08-01T15:45:53Z</time>
      </trkpt>
      <trkpt lat="44.92813" lon="6.57481">
        <ele>1711.0727539062</ele>
        <time>2013-08-01T15:45:59Z</time>
      </trkpt>
      <trkpt lat="44.92815" lon="6.57479">
        <ele>1711.2729492188</ele>
        <time>2013-08-01T15:46:00Z</time>
      </trkpt>
      <trkpt lat="44.92819" lon="6.57471">
        <ele>1712.0866699219</ele>
        <time>2013-08-01T15:46:04Z</time>
      </trkpt>
      <trkpt lat="44.92825" lon="6.57456">
        <ele>1715.1251220703</ele>
        <time>2013-08-01T15:46:11Z</time>
      </trkpt>
      <trkpt lat="44.92832" lon="6.57442">
        <ele>1717.4095458984</ele>
        <time>2013-08-01T15:46:18Z</time>
      </trkpt>
      <trkpt lat="44.9284" lon="6.57426">
        <ele>1719.8688964844</ele>
        <time>2013-08-01T15:46:26Z</time>
      </trkpt>
      <trkpt lat="44.92847" lon="6.57413">
        <ele>1721.4914550781</ele>
        <time>2013-08-01T15:46:33Z</time>
      </trkpt>
      <trkpt lat="44.9286" lon="6.57401">
        <ele>1721.3068847656</ele>
        <time>2013-08-01T15:46:40Z</time>
      </trkpt>
      <trkpt lat="44.92862" lon="6.57392">
        <ele>1723.7301025391</ele>
        <time>2013-08-01T15:46:44Z</time>
      </trkpt>
      <trkpt lat="44.92871" lon="6.57376">
        <ele>1724.3104248047</ele>
        <time>2013-08-01T15:46:52Z</time>
      </trkpt>
      <trkpt lat="44.92871" lon="6.57365">
        <ele>1728.2823486328</ele>
        <time>2013-08-01T15:46:57Z</time>
      </trkpt>
      <trkpt lat="44.92876" lon="6.57357">
        <ele>1727.9545898438</ele>
        <time>2013-08-01T15:47:01Z</time>
      </trkpt>
      <trkpt lat="44.92881" lon="6.57333">
        <ele>1731.5760498047</ele>
        <time>2013-08-01T15:47:04Z</time>
      </trkpt>
      <trkpt lat="44.92862" lon="6.57315">
        <ele>1743.8586425781</ele>
        <time>2013-08-01T15:47:08Z</time>
      </trkpt>
      <trkpt lat="44.92895" lon="6.57336">
        <ele>1725.0568847656</ele>
        <time>2013-08-01T15:47:14Z</time>
      </trkpt>
      <trkpt lat="44.92876" lon="6.57344">
        <ele>1731.4598388672</ele>
        <time>2013-08-01T15:47:18Z</time>
      </trkpt>
      <trkpt lat="44.92899" lon="6.57317">
        <ele>1728.5166015625</ele>
        <time>2013-08-01T15:47:24Z</time>
      </trkpt>
      <trkpt lat="44.92899" lon="6.57315">
        <ele>1729.0865478516</ele>
        <time>2013-08-01T15:47:25Z</time>
      </trkpt>
      <trkpt lat="44.92901" lon="6.57306">
        <ele>1730.4564208984</ele>
        <time>2013-08-01T15:47:31Z</time>
      </trkpt>
      <trkpt lat="44.92902" lon="6.57305">
        <ele>1730.4575195312</ele>
        <time>2013-08-01T15:47:32Z</time>
      </trkpt>
      <trkpt lat="44.929" lon="6.57302">
        <ele>1731.7199707031</ele>
        <time>2013-08-01T15:47:41Z</time>
      </trkpt>
      <trkpt lat="44.92896" lon="6.57297">
        <ele>1734.5718994141</ele>
        <time>2013-08-01T15:48:15Z</time>
      </trkpt>
      <trkpt lat="44.92901" lon="6.57294">
        <ele>1733.1668701172</ele>
        <time>2013-08-01T15:48:20Z</time>
      </trkpt>
      <trkpt lat="44.9291" lon="6.57291">
        <ele>1730.1871337891</ele>
        <time>2013-08-01T15:48:26Z</time>
      </trkpt>
      <trkpt lat="44.92912" lon="6.5729">
        <ele>1729.8508300781</ele>
        <time>2013-08-01T15:48:27Z</time>
      </trkpt>
      <trkpt lat="44.92916" lon="6.57287">
        <ele>1728.6329345703</ele>
        <time>2013-08-01T15:48:31Z</time>
      </trkpt>
      <trkpt lat="44.9293" lon="6.57279">
        <ele>1721.2777099609</ele>
        <time>2013-08-01T15:48:37Z</time>
      </trkpt>
      <trkpt lat="44.92937" lon="6.57267">
        <ele>1717.3762207031</ele>
        <time>2013-08-01T15:48:44Z</time>
      </trkpt>
      <trkpt lat="44.92937" lon="6.57265">
        <ele>1717.4448242188</ele>
        <time>2013-08-01T15:48:45Z</time>
      </trkpt>
      <trkpt lat="44.92939" lon="6.57263">
        <ele>1716.0303955078</ele>
        <time>2013-08-01T15:48:47Z</time>
      </trkpt>
      <trkpt lat="44.92943" lon="6.57257">
        <ele>1712.6118164062</ele>
        <time>2013-08-01T15:48:52Z</time>
      </trkpt>
      <trkpt lat="44.9295" lon="6.57248">
        <ele>1706.2424316406</ele>
        <time>2013-08-01T15:48:58Z</time>
      </trkpt>
      <trkpt lat="44.92957" lon="6.57241">
        <ele>1699.7340087891</ele>
        <time>2013-08-01T15:49:02Z</time>
      </trkpt>
      <trkpt lat="44.92955" lon="6.5723">
        <ele>1701.6385498047</ele>
        <time>2013-08-01T15:49:06Z</time>
      </trkpt>
      <trkpt lat="44.92949" lon="6.57219">
        <ele>1706.4885253906</ele>
        <time>2013-08-01T15:49:10Z</time>
      </trkpt>
      <trkpt lat="44.92945" lon="6.57206">
        <ele>1710.3804931641</ele>
        <time>2013-08-01T15:49:14Z</time>
      </trkpt>
      <trkpt lat="44.92943" lon="6.57185">
        <ele>1713.4630126953</ele>
        <time>2013-08-01T15:49:22Z</time>
      </trkpt>
      <trkpt lat="44.92941" lon="6.57161">
        <ele>1716.7902832031</ele>
        <time>2013-08-01T15:49:28Z</time>
      </trkpt>
      <trkpt lat="44.92949" lon="6.57141">
        <ele>1712.7623291016</ele>
        <time>2013-08-01T15:49:34Z</time>
      </trkpt>
      <trkpt lat="44.92951" lon="6.57139">
        <ele>1711.3924560547</ele>
        <time>2013-08-01T15:49:35Z</time>
      </trkpt>
      <trkpt lat="44.92952" lon="6.57121">
        <ele>1712.4293212891</ele>
        <time>2013-08-01T15:49:40Z</time>
      </trkpt>
      <trkpt lat="44.92963" lon="6.57094">
        <ele>1707.1528320312</ele>
        <time>2013-08-01T15:49:47Z</time>
      </trkpt>
      <trkpt lat="44.92971" lon="6.57075">
        <ele>1706.3272705078</ele>
        <time>2013-08-01T15:49:53Z</time>
      </trkpt>
      <trkpt lat="44.92984" lon="6.5706">
        <ele>1706.1164550781</ele>
        <time>2013-08-01T15:50:00Z</time>
      </trkpt>
      <trkpt lat="44.92984" lon="6.5705">
        <ele>1708.7269287109</ele>
        <time>2013-08-01T15:50:05Z</time>
      </trkpt>
      <trkpt lat="44.92984" lon="6.57036">
        <ele>1711.8940429688</ele>
        <time>2013-08-01T15:50:10Z</time>
      </trkpt>
      <trkpt lat="44.9298" lon="6.57027">
        <ele>1715.4444580078</ele>
        <time>2013-08-01T15:50:15Z</time>
      </trkpt>
      <trkpt lat="44.92973" lon="6.5702">
        <ele>1719.2724609375</ele>
        <time>2013-08-01T15:50:21Z</time>
      </trkpt>
      <trkpt lat="44.92966" lon="6.57009">
        <ele>1724.6630859375</ele>
        <time>2013-08-01T15:50:37Z</time>
      </trkpt>
      <trkpt lat="44.92971" lon="6.57004">
        <ele>1723.4528808594</ele>
        <time>2013-08-01T15:50:40Z</time>
      </trkpt>
      <trkpt lat="44.92978" lon="6.57">
        <ele>1721.9847412109</ele>
        <time>2013-08-01T15:50:45Z</time>
      </trkpt>
      <trkpt lat="44.92976" lon="6.56993">
        <ele>1724.2485351562</ele>
        <time>2013-08-01T15:50:53Z</time>
      </trkpt>
      <trkpt lat="44.92984" lon="6.56985">
        <ele>1723.2047119141</ele>
        <time>2013-08-01T15:50:58Z</time>
      </trkpt>
      <trkpt lat="44.9299" lon="6.56977">
        <ele>1723.2470703125</ele>
        <time>2013-08-01T15:51:03Z</time>
      </trkpt>
      <trkpt lat="44.92993" lon="6.56972">
        <ele>1723.4478759766</ele>
        <time>2013-08-01T15:51:07Z</time>
      </trkpt>
      <trkpt lat="44.92989" lon="6.56955">
        <ele>1727.7530517578</ele>
        <time>2013-08-01T15:51:13Z</time>
      </trkpt>
      <trkpt lat="44.92997" lon="6.56952">
        <ele>1725.2293701172</ele>
        <time>2013-08-01T15:51:15Z</time>
      </trkpt>
      <trkpt lat="44.93004" lon="6.56943">
        <ele>1723.8372802734</ele>
        <time>2013-08-01T15:51:21Z</time>
      </trkpt>
      <trkpt lat="44.93009" lon="6.56927">
        <ele>1724.7209472656</ele>
        <time>2013-08-01T15:51:26Z</time>
      </trkpt>
      <trkpt lat="44.93006" lon="6.56913">
        <ele>1728.1461181641</ele>
        <time>2013-08-01T15:51:31Z</time>
      </trkpt>
      <trkpt lat="44.93008" lon="6.5691">
        <ele>1728.0997314453</ele>
        <time>2013-08-01T15:51:33Z</time>
      </trkpt>
      <trkpt lat="44.93027" lon="6.56899">
        <ele>1722.4641113281</ele>
        <time>2013-08-01T15:51:42Z</time>
      </trkpt>
      <trkpt lat="44.93027" lon="6.56895">
        <ele>1723.2108154297</ele>
        <time>2013-08-01T15:51:44Z</time>
      </trkpt>
      <trkpt lat="44.93023" lon="6.56883">
        <ele>1726.9702148438</ele>
        <time>2013-08-01T15:51:50Z</time>
      </trkpt>
      <trkpt lat="44.93023" lon="6.56873">
        <ele>1728.1909179688</ele>
        <time>2013-08-01T15:51:56Z</time>
      </trkpt>
      <trkpt lat="44.93027" lon="6.56867">
        <ele>1727.4776611328</ele>
        <time>2013-08-01T15:52:00Z</time>
      </trkpt>
      <trkpt lat="44.93036" lon="6.56858">
        <ele>1723.8648681641</ele>
        <time>2013-08-01T15:52:06Z</time>
      </trkpt>
      <trkpt lat="44.93033" lon="6.56844">
        <ele>1728.1046142578</ele>
        <time>2013-08-01T15:52:11Z</time>
      </trkpt>
      <trkpt lat="44.93035" lon="6.5683">
        <ele>1729.3267822266</ele>
        <time>2013-08-01T15:52:17Z</time>
      </trkpt>
      <trkpt lat="44.93038" lon="6.56821">
        <ele>1729.1412353516</ele>
        <time>2013-08-01T15:52:23Z</time>
      </trkpt>
      <trkpt lat="44.93041" lon="6.56821">
        <ele>1727.2025146484</ele>
        <time>2013-08-01T15:52:24Z</time>
      </trkpt>
      <trkpt lat="44.93048" lon="6.56812">
        <ele>1724.6398925781</ele>
        <time>2013-08-01T15:52:29Z</time>
      </trkpt>
      <trkpt lat="44.93052" lon="6.56799">
        <ele>1725.5799560547</ele>
        <time>2013-08-01T15:52:35Z</time>
      </trkpt>
      <trkpt lat="44.93046" lon="6.56781">
        <ele>1732.0338134766</ele>
        <time>2013-08-01T15:52:43Z</time>
      </trkpt>
      <trkpt lat="44.93045" lon="6.56775">
        <ele>1733.8262939453</ele>
        <time>2013-08-01T15:52:46Z</time>
      </trkpt>
      <trkpt lat="44.93046" lon="6.56768">
        <ele>1734.7738037109</ele>
        <time>2013-08-01T15:52:49Z</time>
      </trkpt>
      <trkpt lat="44.93052" lon="6.56762">
        <ele>1733.2803955078</ele>
        <time>2013-08-01T15:52:52Z</time>
      </trkpt>
      <trkpt lat="44.93053" lon="6.56757">
        <ele>1733.712890625</ele>
        <time>2013-08-01T15:52:54Z</time>
      </trkpt>
      <trkpt lat="44.93052" lon="6.56736">
        <ele>1738.1232910156</ele>
        <time>2013-08-01T15:53:00Z</time>
      </trkpt>
      <trkpt lat="44.93046" lon="6.5672">
        <ele>1744.1558837891</ele>
        <time>2013-08-01T15:53:06Z</time>
      </trkpt>
      <trkpt lat="44.93047" lon="6.56717">
        <ele>1744.3583984375</ele>
        <time>2013-08-01T15:53:08Z</time>
      </trkpt>
      <trkpt lat="44.93064" lon="6.56708">
        <ele>1740.8558349609</ele>
        <time>2013-08-01T15:53:14Z</time>
      </trkpt>
      <trkpt lat="44.93091" lon="6.56693">
        <ele>1740.734375</ele>
        <time>2013-08-01T15:53:21Z</time>
      </trkpt>
      <trkpt lat="44.93103" lon="6.56686">
        <ele>1740.9077148438</ele>
        <time>2013-08-01T15:53:25Z</time>
      </trkpt>
      <trkpt lat="44.93116" lon="6.56691">
        <ele>1738.5024414062</ele>
        <time>2013-08-01T15:53:31Z</time>
      </trkpt>
      <trkpt lat="44.93124" lon="6.56692">
        <ele>1736.6514892578</ele>
        <time>2013-08-01T15:53:35Z</time>
      </trkpt>
      <trkpt lat="44.9314" lon="6.56688">
        <ele>1734.0516357422</ele>
        <time>2013-08-01T15:53:41Z</time>
      </trkpt>
      <trkpt lat="44.93149" lon="6.56682">
        <ele>1733.0218505859</ele>
        <time>2013-08-01T15:53:46Z</time>
      </trkpt>
      <trkpt lat="44.93153" lon="6.5667">
        <ele>1733.8258056641</ele>
        <time>2013-08-01T15:53:50Z</time>
      </trkpt>
      <trkpt lat="44.9316" lon="6.56653">
        <ele>1733.4587402344</ele>
        <time>2013-08-01T15:53:57Z</time>
      </trkpt>
      <trkpt lat="44.93163" lon="6.56637">
        <ele>1734.3778076172</ele>
        <time>2013-08-01T15:54:02Z</time>
      </trkpt>
      <trkpt lat="44.93168" lon="6.56631">
        <ele>1733.5095214844</ele>
        <time>2013-08-01T15:54:05Z</time>
      </trkpt>
      <trkpt lat="44.9317" lon="6.5661">
        <ele>1735.2634277344</ele>
        <time>2013-08-01T15:54:12Z</time>
      </trkpt>
      <trkpt lat="44.93167" lon="6.56591">
        <ele>1735.2578125</ele>
        <time>2013-08-01T15:54:18Z</time>
      </trkpt>
      <trkpt lat="44.93166" lon="6.56575">
        <ele>1735.1429443359</ele>
        <time>2013-08-01T15:54:23Z</time>
      </trkpt>
      <trkpt lat="44.93165" lon="6.56563">
        <ele>1735.2775878906</ele>
        <time>2013-08-01T15:54:28Z</time>
      </trkpt>
      <trkpt lat="44.93163" lon="6.56551">
        <ele>1735.7188720703</ele>
        <time>2013-08-01T15:54:33Z</time>
      </trkpt>
      <trkpt lat="44.93146" lon="6.56527">
        <ele>1737.9449462891</ele>
        <time>2013-08-01T15:54:41Z</time>
      </trkpt>
      <trkpt lat="44.93143" lon="6.56514">
        <ele>1738.2603759766</ele>
        <time>2013-08-01T15:54:47Z</time>
      </trkpt>
      <trkpt lat="44.93139" lon="6.56502">
        <ele>1739.0007324219</ele>
        <time>2013-08-01T15:54:53Z</time>
      </trkpt>
      <trkpt lat="44.93134" lon="6.56486">
        <ele>1739.5625</ele>
        <time>2013-08-01T15:54:58Z</time>
      </trkpt>
      <trkpt lat="44.93135" lon="6.56473">
        <ele>1739.0927734375</ele>
        <time>2013-08-01T15:55:03Z</time>
      </trkpt>
      <trkpt lat="44.93136" lon="6.56471">
        <ele>1738.6710205078</ele>
        <time>2013-08-01T15:55:04Z</time>
      </trkpt>
      <trkpt lat="44.93128" lon="6.56446">
        <ele>1740.4095458984</ele>
        <time>2013-08-01T15:55:10Z</time>
      </trkpt>
      <trkpt lat="44.93123" lon="6.56425">
        <ele>1741.3790283203</ele>
        <time>2013-08-01T15:55:16Z</time>
      </trkpt>
      <trkpt lat="44.93122" lon="6.56406">
        <ele>1742.3037109375</ele>
        <time>2013-08-01T15:55:22Z</time>
      </trkpt>
      <trkpt lat="44.93114" lon="6.56381">
        <ele>1745.5406494141</ele>
        <time>2013-08-01T15:55:29Z</time>
      </trkpt>
      <trkpt lat="44.93115" lon="6.56362">
        <ele>1745.9217529297</ele>
        <time>2013-08-01T15:55:36Z</time>
      </trkpt>
      <trkpt lat="44.93118" lon="6.5635">
        <ele>1745.5969238281</ele>
        <time>2013-08-01T15:55:41Z</time>
      </trkpt>
      <trkpt lat="44.93122" lon="6.56336">
        <ele>1744.669921875</ele>
        <time>2013-08-01T15:55:46Z</time>
      </trkpt>
      <trkpt lat="44.93126" lon="6.56322">
        <ele>1744.1802978516</ele>
        <time>2013-08-01T15:55:50Z</time>
      </trkpt>
      <trkpt lat="44.93142" lon="6.56281">
        <ele>1742.1398925781</ele>
        <time>2013-08-01T15:55:58Z</time>
      </trkpt>
      <trkpt lat="44.9315" lon="6.56274">
        <ele>1740.8024902344</ele>
        <time>2013-08-01T15:56:00Z</time>
      </trkpt>
      <trkpt lat="44.9317" lon="6.5625">
        <ele>1737.2203369141</ele>
        <time>2013-08-01T15:56:06Z</time>
      </trkpt>
      <trkpt lat="44.93184" lon="6.56218">
        <ele>1734.2066650391</ele>
        <time>2013-08-01T15:56:11Z</time>
      </trkpt>
      <trkpt lat="44.93187" lon="6.56205">
        <ele>1733.4449462891</ele>
        <time>2013-08-01T15:56:13Z</time>
      </trkpt>
      <trkpt lat="44.93188" lon="6.56177">
        <ele>1731.5423583984</ele>
        <time>2013-08-01T15:56:18Z</time>
      </trkpt>
      <trkpt lat="44.93185" lon="6.56163">
        <ele>1731.2641601562</ele>
        <time>2013-08-01T15:56:22Z</time>
      </trkpt>
      <trkpt lat="44.93178" lon="6.56156">
        <ele>1732.4147949219</ele>
        <time>2013-08-01T15:56:25Z</time>
      </trkpt>
      <trkpt lat="44.93171" lon="6.5615">
        <ele>1733.3902587891</ele>
        <time>2013-08-01T15:56:33Z</time>
      </trkpt>
      <trkpt lat="44.93171" lon="6.56149">
        <ele>1733.4478759766</ele>
        <time>2013-08-01T15:56:43Z</time>
      </trkpt>
      <trkpt lat="44.93171" lon="6.56148">
        <ele>1733.1402587891</ele>
        <time>2013-08-01T15:56:44Z</time>
      </trkpt>
      <trkpt lat="44.93183" lon="6.56136">
        <ele>1728.5114746094</ele>
        <time>2013-08-01T15:56:50Z</time>
      </trkpt>
      <trkpt lat="44.93198" lon="6.56115">
        <ele>1721.7474365234</ele>
        <time>2013-08-01T15:56:55Z</time>
      </trkpt>
      <trkpt lat="44.93209" lon="6.56095">
        <ele>1713.9787597656</ele>
        <time>2013-08-01T15:56:59Z</time>
      </trkpt>
      <trkpt lat="44.93221" lon="6.56085">
        <ele>1706.6929931641</ele>
        <time>2013-08-01T15:57:04Z</time>
      </trkpt>
      <trkpt lat="44.93222" lon="6.56083">
        <ele>1705.9309082031</ele>
        <time>2013-08-01T15:57:08Z</time>
      </trkpt>
      <trkpt lat="44.93221" lon="6.56081">
        <ele>1706.4732666016</ele>
        <time>2013-08-01T15:57:10Z</time>
      </trkpt>
      <trkpt lat="44.93222" lon="6.5608">
        <ele>1705.5145263672</ele>
        <time>2013-08-01T15:57:13Z</time>
      </trkpt>
      <trkpt lat="44.93233" lon="6.56084">
        <ele>1704.1479492188</ele>
        <time>2013-08-01T15:57:19Z</time>
      </trkpt>
      <trkpt lat="44.93235" lon="6.56084">
        <ele>1703.8344726562</ele>
        <time>2013-08-01T15:57:20Z</time>
      </trkpt>
      <trkpt lat="44.93243" lon="6.56101">
        <ele>1704.1884765625</ele>
        <time>2013-08-01T15:57:25Z</time>
      </trkpt>
      <trkpt lat="44.93246" lon="6.56105">
        <ele>1704.0329589844</ele>
        <time>2013-08-01T15:57:26Z</time>
      </trkpt>
      <trkpt lat="44.93253" lon="6.56115">
        <ele>1703.9694824219</ele>
        <time>2013-08-01T15:57:32Z</time>
      </trkpt>
      <trkpt lat="44.93269" lon="6.56124">
        <ele>1702.3297119141</ele>
        <time>2013-08-01T15:57:37Z</time>
      </trkpt>
      <trkpt lat="44.93272" lon="6.56128">
        <ele>1702.2023925781</ele>
        <time>2013-08-01T15:57:39Z</time>
      </trkpt>
      <trkpt lat="44.93276" lon="6.56127">
        <ele>1701.4135742188</ele>
        <time>2013-08-01T15:57:44Z</time>
      </trkpt>
      <trkpt lat="44.93283" lon="6.56132">
        <ele>1698.8254394531</ele>
        <time>2013-08-01T15:57:47Z</time>
      </trkpt>
      <trkpt lat="44.9328" lon="6.56141">
        <ele>1700.8784179688</ele>
        <time>2013-08-01T15:57:53Z</time>
      </trkpt>
      <trkpt lat="44.93283" lon="6.56143">
        <ele>1699.9016113281</ele>
        <time>2013-08-01T15:57:54Z</time>
      </trkpt>
      <trkpt lat="44.933" lon="6.56143">
        <ele>1691.8670654297</ele>
        <time>2013-08-01T15:57:58Z</time>
      </trkpt>
      <trkpt lat="44.93308" lon="6.56138">
        <ele>1688.1831054688</ele>
        <time>2013-08-01T15:58:03Z</time>
      </trkpt>
      <trkpt lat="44.93314" lon="6.56134">
        <ele>1686.0648193359</ele>
        <time>2013-08-01T15:58:08Z</time>
      </trkpt>
      <trkpt lat="44.93311" lon="6.56132">
        <ele>1686.5711669922</ele>
        <time>2013-08-01T15:58:10Z</time>
      </trkpt>
      <trkpt lat="44.93311" lon="6.56114">
        <ele>1684.8236083984</ele>
        <time>2013-08-01T15:58:16Z</time>
      </trkpt>
      <trkpt lat="44.93311" lon="6.56113">
        <ele>1684.62109375</ele>
        <time>2013-08-01T15:58:17Z</time>
      </trkpt>
      <trkpt lat="44.93319" lon="6.56102">
        <ele>1680.8508300781</ele>
        <time>2013-08-01T15:58:22Z</time>
      </trkpt>
      <trkpt lat="44.93325" lon="6.56099">
        <ele>1678.5424804688</ele>
        <time>2013-08-01T15:58:25Z</time>
      </trkpt>
      <trkpt lat="44.9334" lon="6.56119">
        <ele>1675.2299804688</ele>
        <time>2013-08-01T15:58:30Z</time>
      </trkpt>
      <trkpt lat="44.93339" lon="6.56123">
        <ele>1676.0720214844</ele>
        <time>2013-08-01T15:58:31Z</time>
      </trkpt>
      <trkpt lat="44.93342" lon="6.56122">
        <ele>1674.1790771484</ele>
        <time>2013-08-01T15:58:35Z</time>
      </trkpt>
      <trkpt lat="44.93345" lon="6.56115">
        <ele>1671.5213623047</ele>
        <time>2013-08-01T15:58:38Z</time>
      </trkpt>
      <trkpt lat="44.93344" lon="6.56111">
        <ele>1671.9603271484</ele>
        <time>2013-08-01T15:58:40Z</time>
      </trkpt>
      <trkpt lat="44.93348" lon="6.56127">
        <ele>1671.2027587891</ele>
        <time>2013-08-01T15:58:44Z</time>
      </trkpt>
      <trkpt lat="44.93358" lon="6.56147">
        <ele>1666.3333740234</ele>
        <time>2013-08-01T15:58:48Z</time>
      </trkpt>
      <trkpt lat="44.93359" lon="6.56157">
        <ele>1666.8277587891</ele>
        <time>2013-08-01T15:58:51Z</time>
      </trkpt>
      <trkpt lat="44.9336" lon="6.56167">
        <ele>1666.8728027344</ele>
        <time>2013-08-01T15:58:54Z</time>
      </trkpt>
      <trkpt lat="44.93354" lon="6.56161">
        <ele>1670.1785888672</ele>
        <time>2013-08-01T15:58:58Z</time>
      </trkpt>
      <trkpt lat="44.93355" lon="6.56157">
        <ele>1668.9632568359</ele>
        <time>2013-08-01T15:59:02Z</time>
      </trkpt>
      <trkpt lat="44.9337" lon="6.5617">
        <ele>1664.5938720703</ele>
        <time>2013-08-01T15:59:06Z</time>
      </trkpt>
      <trkpt lat="44.93378" lon="6.56179">
        <ele>1663.9924316406</ele>
        <time>2013-08-01T15:59:08Z</time>
      </trkpt>
      <trkpt lat="44.93387" lon="6.5619">
        <ele>1663.0242919922</ele>
        <time>2013-08-01T15:59:11Z</time>
      </trkpt>
      <trkpt lat="44.93399" lon="6.56195">
        <ele>1659.7535400391</ele>
        <time>2013-08-01T15:59:15Z</time>
      </trkpt>
      <trkpt lat="44.9341" lon="6.56211">
        <ele>1657.6412353516</ele>
        <time>2013-08-01T15:59:21Z</time>
      </trkpt>
      <trkpt lat="44.93408" lon="6.56239">
        <ele>1660.0357666016</ele>
        <time>2013-08-01T15:59:25Z</time>
      </trkpt>
      <trkpt lat="44.93415" lon="6.56262">
        <ele>1659.033203125</ele>
        <time>2013-08-01T15:59:30Z</time>
      </trkpt>
      <trkpt lat="44.93427" lon="6.56289">
        <ele>1655.5013427734</ele>
        <time>2013-08-01T15:59:35Z</time>
      </trkpt>
      <trkpt lat="44.93426" lon="6.56316">
        <ele>1656.1647949219</ele>
        <time>2013-08-01T15:59:39Z</time>
      </trkpt>
      <trkpt lat="44.93433" lon="6.5633">
        <ele>1652.5092773438</ele>
        <time>2013-08-01T15:59:43Z</time>
      </trkpt>
      <trkpt lat="44.93451" lon="6.56318">
        <ele>1643.5689697266</ele>
        <time>2013-08-01T15:59:46Z</time>
      </trkpt>
      <trkpt lat="44.93458" lon="6.56297">
        <ele>1640.0113525391</ele>
        <time>2013-08-01T15:59:50Z</time>
      </trkpt>
      <trkpt lat="44.93465" lon="6.56279">
        <ele>1636.0611572266</ele>
        <time>2013-08-01T15:59:53Z</time>
      </trkpt>
      <trkpt lat="44.93471" lon="6.5626">
        <ele>1634.0402832031</ele>
        <time>2013-08-01T15:59:57Z</time>
      </trkpt>
      <trkpt lat="44.93473" lon="6.56245">
        <ele>1634.0323486328</ele>
        <time>2013-08-01T16:00:01Z</time>
      </trkpt>
      <trkpt lat="44.93472" lon="6.56243">
        <ele>1634.5104980469</ele>
        <time>2013-08-01T16:00:02Z</time>
      </trkpt>
      <trkpt lat="44.93481" lon="6.56231">
        <ele>1631.8450927734</ele>
        <time>2013-08-01T16:00:08Z</time>
      </trkpt>
      <trkpt lat="44.93492" lon="6.56239">
        <ele>1627.36328125</ele>
        <time>2013-08-01T16:00:13Z</time>
      </trkpt>
      <trkpt lat="44.93492" lon="6.56241">
        <ele>1627.3837890625</ele>
        <time>2013-08-01T16:00:15Z</time>
      </trkpt>
      <trkpt lat="44.93494" lon="6.56249">
        <ele>1626.0413818359</ele>
        <time>2013-08-01T16:00:21Z</time>
      </trkpt>
      <trkpt lat="44.93504" lon="6.56259">
        <ele>1621.9631347656</ele>
        <time>2013-08-01T16:00:26Z</time>
      </trkpt>
      <trkpt lat="44.93507" lon="6.56261">
        <ele>1620.4165039062</ele>
        <time>2013-08-01T16:00:27Z</time>
      </trkpt>
      <trkpt lat="44.93507" lon="6.56276">
        <ele>1620.0233154297</ele>
        <time>2013-08-01T16:00:32Z</time>
      </trkpt>
      <trkpt lat="44.93509" lon="6.56278">
        <ele>1619.1096191406</ele>
        <time>2013-08-01T16:00:34Z</time>
      </trkpt>
      <trkpt lat="44.93508" lon="6.56293">
        <ele>1618.5935058594</ele>
        <time>2013-08-01T16:00:39Z</time>
      </trkpt>
      <trkpt lat="44.93509" lon="6.56307">
        <ele>1617.2221679688</ele>
        <time>2013-08-01T16:00:44Z</time>
      </trkpt>
      <trkpt lat="44.93515" lon="6.56317">
        <ele>1613.3466796875</ele>
        <time>2013-08-01T16:00:48Z</time>
      </trkpt>
      <trkpt lat="44.93509" lon="6.5633">
        <ele>1616.0408935547</ele>
        <time>2013-08-01T16:00:52Z</time>
      </trkpt>
      <trkpt lat="44.93507" lon="6.56334">
        <ele>1616.6091308594</ele>
        <time>2013-08-01T16:00:53Z</time>
      </trkpt>
      <trkpt lat="44.93503" lon="6.56352">
        <ele>1616.8303222656</ele>
        <time>2013-08-01T16:00:57Z</time>
      </trkpt>
      <trkpt lat="44.93509" lon="6.56356">
        <ele>1612.9279785156</ele>
        <time>2013-08-01T16:01:01Z</time>
      </trkpt>
      <trkpt lat="44.93513" lon="6.56355">
        <ele>1610.5314941406</ele>
        <time>2013-08-01T16:01:02Z</time>
      </trkpt>
      <trkpt lat="44.93533" lon="6.56349">
        <ele>1600.0297851562</ele>
        <time>2013-08-01T16:01:07Z</time>
      </trkpt>
      <trkpt lat="44.93538" lon="6.56355">
        <ele>1596.6495361328</ele>
        <time>2013-08-01T16:01:09Z</time>
      </trkpt>
      <trkpt lat="44.9353" lon="6.56366">
        <ele>1600.1854248047</ele>
        <time>2013-08-01T16:01:13Z</time>
      </trkpt>
      <trkpt lat="44.93528" lon="6.56369">
        <ele>1600.8034667969</ele>
        <time>2013-08-01T16:01:14Z</time>
      </trkpt>
      <trkpt lat="44.9352" lon="6.56383">
        <ele>1602.5812988281</ele>
        <time>2013-08-01T16:01:19Z</time>
      </trkpt>
      <trkpt lat="44.93534" lon="6.56387">
        <ele>1594.1567382812</ele>
        <time>2013-08-01T16:01:25Z</time>
      </trkpt>
      <trkpt lat="44.93532" lon="6.56398">
        <ele>1593.6362304688</ele>
        <time>2013-08-01T16:01:28Z</time>
      </trkpt>
      <trkpt lat="44.9353" lon="6.56415">
        <ele>1590.8999023438</ele>
        <time>2013-08-01T16:01:32Z</time>
      </trkpt>
      <trkpt lat="44.93546" lon="6.56414">
        <ele>1582.1342773438</ele>
        <time>2013-08-01T16:01:35Z</time>
      </trkpt>
      <trkpt lat="44.93549" lon="6.56402">
        <ele>1582.5402832031</ele>
        <time>2013-08-01T16:01:37Z</time>
      </trkpt>
      <trkpt lat="44.93558" lon="6.5639">
        <ele>1579.7806396484</ele>
        <time>2013-08-01T16:01:42Z</time>
      </trkpt>
      <trkpt lat="44.93565" lon="6.56377">
        <ele>1577.6612548828</ele>
        <time>2013-08-01T16:01:48Z</time>
      </trkpt>
      <trkpt lat="44.93567" lon="6.56362">
        <ele>1578.7053222656</ele>
        <time>2013-08-01T16:01:52Z</time>
      </trkpt>
      <trkpt lat="44.93567" lon="6.5636">
        <ele>1579.1926269531</ele>
        <time>2013-08-01T16:01:53Z</time>
      </trkpt>
      <trkpt lat="44.93579" lon="6.56353">
        <ele>1573.4073486328</ele>
        <time>2013-08-01T16:01:58Z</time>
      </trkpt>
      <trkpt lat="44.9358" lon="6.56351">
        <ele>1573.0567626953</ele>
        <time>2013-08-01T16:01:59Z</time>
      </trkpt>
      <trkpt lat="44.93587" lon="6.56327">
        <ele>1572.1904296875</ele>
        <time>2013-08-01T16:02:06Z</time>
      </trkpt>
      <trkpt lat="44.93594" lon="6.56307">
        <ele>1571.0346679688</ele>
        <time>2013-08-01T16:02:10Z</time>
      </trkpt>
      <trkpt lat="44.93597" lon="6.56291">
        <ele>1571.1684570312</ele>
        <time>2013-08-01T16:02:14Z</time>
      </trkpt>
      <trkpt lat="44.93603" lon="6.56279">
        <ele>1568.5144042969</ele>
        <time>2013-08-01T16:02:19Z</time>
      </trkpt>
      <trkpt lat="44.93605" lon="6.56278">
        <ele>1567.2746582031</ele>
        <time>2013-08-01T16:02:20Z</time>
      </trkpt>
      <trkpt lat="44.93608" lon="6.56274">
        <ele>1565.3709716797</ele>
        <time>2013-08-01T16:02:24Z</time>
      </trkpt>
      <trkpt lat="44.9361" lon="6.56292">
        <ele>1563.8424072266</ele>
        <time>2013-08-01T16:02:29Z</time>
      </trkpt>
      <trkpt lat="44.9362" lon="6.56291">
        <ele>1559.2572021484</ele>
        <time>2013-08-01T16:02:33Z</time>
      </trkpt>
      <trkpt lat="44.93624" lon="6.56277">
        <ele>1558.0592041016</ele>
        <time>2013-08-01T16:02:38Z</time>
      </trkpt>
      <trkpt lat="44.93628" lon="6.56271">
        <ele>1555.8739013672</ele>
        <time>2013-08-01T16:02:42Z</time>
      </trkpt>
      <trkpt lat="44.93635" lon="6.56279">
        <ele>1552.8455810547</ele>
        <time>2013-08-01T16:02:47Z</time>
      </trkpt>
      <trkpt lat="44.93635" lon="6.56266">
        <ele>1552.4819335938</ele>
        <time>2013-08-01T16:02:52Z</time>
      </trkpt>
      <trkpt lat="44.93632" lon="6.56252">
        <ele>1553.2509765625</ele>
        <time>2013-08-01T16:02:57Z</time>
      </trkpt>
      <trkpt lat="44.93632" lon="6.56249">
        <ele>1553.2377929688</ele>
        <time>2013-08-01T16:02:58Z</time>
      </trkpt>
      <trkpt lat="44.93625" lon="6.56229">
        <ele>1553.1846923828</ele>
        <time>2013-08-01T16:03:03Z</time>
      </trkpt>
      <trkpt lat="44.93628" lon="6.56219">
        <ele>1549.91015625</ele>
        <time>2013-08-01T16:03:07Z</time>
      </trkpt>
      <trkpt lat="44.93649" lon="6.56231">
        <ele>1542.1807861328</ele>
        <time>2013-08-01T16:03:12Z</time>
      </trkpt>
      <trkpt lat="44.9366" lon="6.56231">
        <ele>1537.7653808594</ele>
        <time>2013-08-01T16:03:14Z</time>
      </trkpt>
      <trkpt lat="44.9368" lon="6.56231">
        <ele>1527.5666503906</ele>
        <time>2013-08-01T16:03:19Z</time>
      </trkpt>
      <trkpt lat="44.93674" lon="6.56219">
        <ele>1528.5711669922</ele>
        <time>2013-08-01T16:03:22Z</time>
      </trkpt>
      <trkpt lat="44.93671" lon="6.56212">
        <ele>1528.3950195312</ele>
        <time>2013-08-01T16:03:25Z</time>
      </trkpt>
      <trkpt lat="44.93668" lon="6.56192">
        <ele>1525.5078125</ele>
        <time>2013-08-01T16:03:31Z</time>
      </trkpt>
      <trkpt lat="44.93671" lon="6.56186">
        <ele>1523.2894287109</ele>
        <time>2013-08-01T16:03:34Z</time>
      </trkpt>
      <trkpt lat="44.93686" lon="6.56186">
        <ele>1515.9876708984</ele>
        <time>2013-08-01T16:03:39Z</time>
      </trkpt>
      <trkpt lat="44.93701" lon="6.56194">
        <ele>1508.4931640625</ele>
        <time>2013-08-01T16:03:45Z</time>
      </trkpt>
      <trkpt lat="44.93711" lon="6.56198">
        <ele>1504.8958740234</ele>
        <time>2013-08-01T16:03:50Z</time>
      </trkpt>
      <trkpt lat="44.9372" lon="6.56202">
        <ele>1501.9479980469</ele>
        <time>2013-08-01T16:03:54Z</time>
      </trkpt>
      <trkpt lat="44.9372" lon="6.56202">
        <ele>1501.9262695312</ele>
        <time>2013-08-01T16:03:55Z</time>
      </trkpt>
      <trkpt lat="44.93712" lon="6.56194">
        <ele>1504.0498046875</ele>
        <time>2013-08-01T16:03:59Z</time>
      </trkpt>
      <trkpt lat="44.93707" lon="6.56179">
        <ele>1508.6976318359</ele>
        <time>2013-08-01T16:04:04Z</time>
      </trkpt>
      <trkpt lat="44.93727" lon="6.56165">
        <ele>1506.3497314453</ele>
        <time>2013-08-01T16:04:09Z</time>
      </trkpt>
      <trkpt lat="44.93732" lon="6.56163">
        <ele>1506.0113525391</ele>
        <time>2013-08-01T16:04:12Z</time>
      </trkpt>
      <trkpt lat="44.93755" lon="6.5616">
        <ele>1502.5810546875</ele>
        <time>2013-08-01T16:04:19Z</time>
      </trkpt>
      <trkpt lat="44.93763" lon="6.56164">
        <ele>1500.642578125</ele>
        <time>2013-08-01T16:04:23Z</time>
      </trkpt>
      <trkpt lat="44.93766" lon="6.56166">
        <ele>1499.5257568359</ele>
        <time>2013-08-01T16:04:24Z</time>
      </trkpt>
      <trkpt lat="44.93777" lon="6.56174">
        <ele>1498.2830810547</ele>
        <time>2013-08-01T16:04:30Z</time>
      </trkpt>
      <trkpt lat="44.93795" lon="6.56176">
        <ele>1496.5734863281</ele>
        <time>2013-08-01T16:04:35Z</time>
      </trkpt>
      <trkpt lat="44.93797" lon="6.56173">
        <ele>1496.7248535156</ele>
        <time>2013-08-01T16:04:36Z</time>
      </trkpt>
      <trkpt lat="44.93817" lon="6.56175">
        <ele>1493.9927978516</ele>
        <time>2013-08-01T16:04:41Z</time>
      </trkpt>
      <trkpt lat="44.93832" lon="6.56174">
        <ele>1491.8913574219</ele>
        <time>2013-08-01T16:04:47Z</time>
      </trkpt>
      <trkpt lat="44.93847" lon="6.5617">
        <ele>1489.6901855469</ele>
        <time>2013-08-01T16:04:51Z</time>
      </trkpt>
      <trkpt lat="44.93861" lon="6.56167">
        <ele>1486.9149169922</ele>
        <time>2013-08-01T16:04:55Z</time>
      </trkpt>
      <trkpt lat="44.93863" lon="6.56166">
        <ele>1486.7525634766</ele>
        <time>2013-08-01T16:04:56Z</time>
      </trkpt>
      <trkpt lat="44.93869" lon="6.56167">
        <ele>1485.1058349609</ele>
        <time>2013-08-01T16:04:58Z</time>
      </trkpt>
      <trkpt lat="44.93878" lon="6.5616">
        <ele>1483.6563720703</ele>
        <time>2013-08-01T16:05:03Z</time>
      </trkpt>
      <trkpt lat="44.93888" lon="6.56157">
        <ele>1481.2581787109</ele>
        <time>2013-08-01T16:05:08Z</time>
      </trkpt>
      <trkpt lat="44.93903" lon="6.56154">
        <ele>1476.6346435547</ele>
        <time>2013-08-01T16:05:12Z</time>
      </trkpt>
      <trkpt lat="44.93915" lon="6.56148">
        <ele>1474.0092773438</ele>
        <time>2013-08-01T16:05:18Z</time>
      </trkpt>
      <trkpt lat="44.93933" lon="6.5614">
        <ele>1470.7125244141</ele>
        <time>2013-08-01T16:05:24Z</time>
      </trkpt>
      <trkpt lat="44.93939" lon="6.56141">
        <ele>1469.2222900391</ele>
        <time>2013-08-01T16:05:28Z</time>
      </trkpt>
      <trkpt lat="44.93951" lon="6.56154">
        <ele>1466.1409912109</ele>
        <time>2013-08-01T16:05:33Z</time>
      </trkpt>
      <trkpt lat="44.93958" lon="6.56167">
        <ele>1464.5244140625</ele>
        <time>2013-08-01T16:05:37Z</time>
      </trkpt>
      <trkpt lat="44.93953" lon="6.56175">
        <ele>1464.2237548828</ele>
        <time>2013-08-01T16:05:41Z</time>
      </trkpt>
      <trkpt lat="44.93958" lon="6.56191">
        <ele>1462.3839111328</ele>
        <time>2013-08-01T16:05:47Z</time>
      </trkpt>
      <trkpt lat="44.93967" lon="6.562">
        <ele>1460.6184082031</ele>
        <time>2013-08-01T16:05:51Z</time>
      </trkpt>
      <trkpt lat="44.9399" lon="6.56204">
        <ele>1457.0672607422</ele>
        <time>2013-08-01T16:05:56Z</time>
      </trkpt>
      <trkpt lat="44.94005" lon="6.56201">
        <ele>1454.7141113281</ele>
        <time>2013-08-01T16:06:02Z</time>
      </trkpt>
      <trkpt lat="44.9402" lon="6.56198">
        <ele>1450.8787841797</ele>
        <time>2013-08-01T16:06:08Z</time>
      </trkpt>
      <trkpt lat="44.94029" lon="6.56191">
        <ele>1449.0263671875</ele>
        <time>2013-08-01T16:06:14Z</time>
      </trkpt>
      <trkpt lat="44.9404" lon="6.5618">
        <ele>1447.1091308594</ele>
        <time>2013-08-01T16:06:19Z</time>
      </trkpt>
      <trkpt lat="44.94044" lon="6.5618">
        <ele>1446.2203369141</ele>
        <time>2013-08-01T16:06:20Z</time>
      </trkpt>
      <trkpt lat="44.94056" lon="6.56189">
        <ele>1443.1813964844</ele>
        <time>2013-08-01T16:06:24Z</time>
      </trkpt>
      <trkpt lat="44.94061" lon="6.56196">
        <ele>1441.7789306641</ele>
        <time>2013-08-01T16:06:29Z</time>
      </trkpt>
      <trkpt lat="44.94067" lon="6.56209">
        <ele>1439.990234375</ele>
        <time>2013-08-01T16:06:32Z</time>
      </trkpt>
      <trkpt lat="44.94065" lon="6.56231">
        <ele>1439.8074951172</ele>
        <time>2013-08-01T16:06:37Z</time>
      </trkpt>
      <trkpt lat="44.94064" lon="6.56238">
        <ele>1439.8594970703</ele>
        <time>2013-08-01T16:06:39Z</time>
      </trkpt>
      <trkpt lat="44.94065" lon="6.56256">
        <ele>1438.9904785156</ele>
        <time>2013-08-01T16:06:44Z</time>
      </trkpt>
      <trkpt lat="44.94064" lon="6.56274">
        <ele>1438.0651855469</ele>
        <time>2013-08-01T16:06:48Z</time>
      </trkpt>
      <trkpt lat="44.94069" lon="6.56276">
        <ele>1437.2045898438</ele>
        <time>2013-08-01T16:06:52Z</time>
      </trkpt>
      <trkpt lat="44.94068" lon="6.56281">
        <ele>1437.0695800781</ele>
        <time>2013-08-01T16:06:55Z</time>
      </trkpt>
      <trkpt lat="44.94067" lon="6.56286">
        <ele>1437.0506591797</ele>
        <time>2013-08-01T16:06:58Z</time>
      </trkpt>
      <trkpt lat="44.94082" lon="6.56284">
        <ele>1434.7338867188</ele>
        <time>2013-08-01T16:07:02Z</time>
      </trkpt>
      <trkpt lat="44.94098" lon="6.56272">
        <ele>1432.0638427734</ele>
        <time>2013-08-01T16:07:07Z</time>
      </trkpt>
      <trkpt lat="44.94108" lon="6.56261">
        <ele>1430.2459716797</ele>
        <time>2013-08-01T16:07:13Z</time>
      </trkpt>
      <trkpt lat="44.94117" lon="6.56266">
        <ele>1428.3713378906</ele>
        <time>2013-08-01T16:07:17Z</time>
      </trkpt>
      <trkpt lat="44.94119" lon="6.5627">
        <ele>1427.8803710938</ele>
        <time>2013-08-01T16:07:19Z</time>
      </trkpt>
      <trkpt lat="44.9412" lon="6.56281">
        <ele>1427.2447509766</ele>
        <time>2013-08-01T16:07:25Z</time>
      </trkpt>
      <trkpt lat="44.94127" lon="6.56299">
        <ele>1425.1052246094</ele>
        <time>2013-08-01T16:07:29Z</time>
      </trkpt>
      <trkpt lat="44.94139" lon="6.56312">
        <ele>1422.5867919922</ele>
        <time>2013-08-01T16:07:34Z</time>
      </trkpt>
      <trkpt lat="44.9415" lon="6.56321">
        <ele>1419.1467285156</ele>
        <time>2013-08-01T16:07:39Z</time>
      </trkpt>
      <trkpt lat="44.9415" lon="6.56323">
        <ele>1418.8995361328</ele>
        <time>2013-08-01T16:07:40Z</time>
      </trkpt>
      <trkpt lat="44.94164" lon="6.56317">
        <ele>1415.8851318359</ele>
        <time>2013-08-01T16:07:44Z</time>
      </trkpt>
      <trkpt lat="44.94166" lon="6.5631">
        <ele>1415.8851318359</ele>
        <time>2013-08-01T16:07:45Z</time>
      </trkpt>
      <trkpt lat="44.94181" lon="6.56295">
        <ele>1413.5572509766</ele>
        <time>2013-08-01T16:07:48Z</time>
      </trkpt>
      <trkpt lat="44.94201" lon="6.56291">
        <ele>1410.1594238281</ele>
        <time>2013-08-01T16:07:52Z</time>
      </trkpt>
      <trkpt lat="44.94223" lon="6.56303">
        <ele>1407.0218505859</ele>
        <time>2013-08-01T16:07:59Z</time>
      </trkpt>
      <trkpt lat="44.94228" lon="6.56307">
        <ele>1406.3677978516</ele>
        <time>2013-08-01T16:08:00Z</time>
      </trkpt>
      <trkpt lat="44.9424" lon="6.56319">
        <ele>1404.6099853516</ele>
        <time>2013-08-01T16:08:05Z</time>
      </trkpt>
      <trkpt lat="44.94242" lon="6.56322">
        <ele>1404.232421875</ele>
        <time>2013-08-01T16:08:07Z</time>
      </trkpt>
      <trkpt lat="44.94246" lon="6.56342">
        <ele>1403.1423339844</ele>
        <time>2013-08-01T16:08:13Z</time>
      </trkpt>
      <trkpt lat="44.94244" lon="6.56349">
        <ele>1403.1251220703</ele>
        <time>2013-08-01T16:08:15Z</time>
      </trkpt>
      <trkpt lat="44.9423" lon="6.56382">
        <ele>1403.4272460938</ele>
        <time>2013-08-01T16:08:22Z</time>
      </trkpt>
      <trkpt lat="44.94217" lon="6.56396">
        <ele>1404.2879638672</ele>
        <time>2013-08-01T16:08:27Z</time>
      </trkpt>
      <trkpt lat="44.94204" lon="6.56401">
        <ele>1405.2327880859</ele>
        <time>2013-08-01T16:08:32Z</time>
      </trkpt>
      <trkpt lat="44.94191" lon="6.56416">
        <ele>1405.4998779297</ele>
        <time>2013-08-01T16:08:39Z</time>
      </trkpt>
      <trkpt lat="44.9418" lon="6.56445">
        <ele>1405.4754638672</ele>
        <time>2013-08-01T16:08:46Z</time>
      </trkpt>
      <trkpt lat="44.94168" lon="6.56474">
        <ele>1404.8649902344</ele>
        <time>2013-08-01T16:08:51Z</time>
      </trkpt>
      <trkpt lat="44.94162" lon="6.56506">
        <ele>1404.0346679688</ele>
        <time>2013-08-01T16:08:56Z</time>
      </trkpt>
      <trkpt lat="44.94157" lon="6.56518">
        <ele>1403.5377197266</ele>
        <time>2013-08-01T16:08:58Z</time>
      </trkpt>
      <trkpt lat="44.94143" lon="6.56539">
        <ele>1402.8979492188</ele>
        <time>2013-08-01T16:09:02Z</time>
      </trkpt>
      <trkpt lat="44.94127" lon="6.56567">
        <ele>1402.0595703125</ele>
        <time>2013-08-01T16:09:07Z</time>
      </trkpt>
      <trkpt lat="44.94105" lon="6.56589">
        <ele>1402.6782226562</ele>
        <time>2013-08-01T16:09:12Z</time>
      </trkpt>
      <trkpt lat="44.94091" lon="6.56619">
        <ele>1401.533203125</ele>
        <time>2013-08-01T16:09:17Z</time>
      </trkpt>
      <trkpt lat="44.94095" lon="6.56634">
        <ele>1398.9116210938</ele>
        <time>2013-08-01T16:09:20Z</time>
      </trkpt>
      <trkpt lat="44.9409" lon="6.56644">
        <ele>1398.3609619141</ele>
        <time>2013-08-01T16:09:23Z</time>
      </trkpt>
      <trkpt lat="44.94088" lon="6.56646">
        <ele>1398.4649658203</ele>
        <time>2013-08-01T16:09:24Z</time>
      </trkpt>
      <trkpt lat="44.94069" lon="6.56659">
        <ele>1398.6574707031</ele>
        <time>2013-08-01T16:09:32Z</time>
      </trkpt>
      <trkpt lat="44.94058" lon="6.56674">
        <ele>1397.7581787109</ele>
        <time>2013-08-01T16:09:37Z</time>
      </trkpt>
      <trkpt lat="44.94055" lon="6.56686">
        <ele>1396.3656005859</ele>
        <time>2013-08-01T16:09:42Z</time>
      </trkpt>
      <trkpt lat="44.94046" lon="6.567">
        <ele>1395.6361083984</ele>
        <time>2013-08-01T16:09:49Z</time>
      </trkpt>
      <trkpt lat="44.94036" lon="6.5672">
        <ele>1394.1254882812</ele>
        <time>2013-08-01T16:09:53Z</time>
      </trkpt>
      <trkpt lat="44.94021" lon="6.56743">
        <ele>1393.1734619141</ele>
        <time>2013-08-01T16:09:57Z</time>
      </trkpt>
      <trkpt lat="44.93999" lon="6.5678">
        <ele>1391.6722412109</ele>
        <time>2013-08-01T16:10:02Z</time>
      </trkpt>
      <trkpt lat="44.93979" lon="6.56819">
        <ele>1387.7263183594</ele>
        <time>2013-08-01T16:10:07Z</time>
      </trkpt>
      <trkpt lat="44.93975" lon="6.56827">
        <ele>1386.8033447266</ele>
        <time>2013-08-01T16:10:08Z</time>
      </trkpt>
      <trkpt lat="44.9396" lon="6.56845">
        <ele>1385.5559082031</ele>
        <time>2013-08-01T16:10:12Z</time>
      </trkpt>
      <trkpt lat="44.93957" lon="6.56847">
        <ele>1385.7893066406</ele>
        <time>2013-08-01T16:10:13Z</time>
      </trkpt>
      <trkpt lat="44.93943" lon="6.5685">
        <ele>1387.2054443359</ele>
        <time>2013-08-01T16:10:17Z</time>
      </trkpt>
      <trkpt lat="44.9393" lon="6.56857">
        <ele>1388.3283691406</ele>
        <time>2013-08-01T16:10:20Z</time>
      </trkpt>
      <trkpt lat="44.93917" lon="6.56875">
        <ele>1387.8846435547</ele>
        <time>2013-08-01T16:10:25Z</time>
      </trkpt>
      <trkpt lat="44.93909" lon="6.56906">
        <ele>1386.1943359375</ele>
        <time>2013-08-01T16:10:33Z</time>
      </trkpt>
      <trkpt lat="44.93903" lon="6.56935">
        <ele>1385.0845947266</ele>
        <time>2013-08-01T16:10:40Z</time>
      </trkpt>
      <trkpt lat="44.93892" lon="6.56949">
        <ele>1386.0339355469</ele>
        <time>2013-08-01T16:10:44Z</time>
      </trkpt>
      <trkpt lat="44.93871" lon="6.56964">
        <ele>1388.3645019531</ele>
        <time>2013-08-01T16:10:50Z</time>
      </trkpt>
      <trkpt lat="44.93857" lon="6.56981">
        <ele>1388.6527099609</ele>
        <time>2013-08-01T16:10:55Z</time>
      </trkpt>
      <trkpt lat="44.93847" lon="6.57009">
        <ele>1386.1541748047</ele>
        <time>2013-08-01T16:11:00Z</time>
      </trkpt>
      <trkpt lat="44.93826" lon="6.57037">
        <ele>1385.8095703125</ele>
        <time>2013-08-01T16:11:05Z</time>
      </trkpt>
      <trkpt lat="44.93817" lon="6.57044">
        <ele>1386.0241699219</ele>
        <time>2013-08-01T16:11:07Z</time>
      </trkpt>
      <trkpt lat="44.93803" lon="6.57071">
        <ele>1384.0770263672</ele>
        <time>2013-08-01T16:11:13Z</time>
      </trkpt>
      <trkpt lat="44.93803" lon="6.57085">
        <ele>1381.3909912109</ele>
        <time>2013-08-01T16:11:18Z</time>
      </trkpt>
      <trkpt lat="44.93812" lon="6.571">
        <ele>1376.0660400391</ele>
        <time>2013-08-01T16:11:21Z</time>
      </trkpt>
      <trkpt lat="44.93808" lon="6.57113">
        <ele>1374.3438720703</ele>
        <time>2013-08-01T16:11:25Z</time>
      </trkpt>
      <trkpt lat="44.938" lon="6.57133">
        <ele>1372.2843017578</ele>
        <time>2013-08-01T16:11:29Z</time>
      </trkpt>
      <trkpt lat="44.93788" lon="6.57147">
        <ele>1372.7895507812</ele>
        <time>2013-08-01T16:11:31Z</time>
      </trkpt>
      <trkpt lat="44.93771" lon="6.57176">
        <ele>1371.6435546875</ele>
        <time>2013-08-01T16:11:35Z</time>
      </trkpt>
      <trkpt lat="44.93751" lon="6.57209">
        <ele>1371.3109130859</ele>
        <time>2013-08-01T16:11:41Z</time>
      </trkpt>
      <trkpt lat="44.93735" lon="6.57228">
        <ele>1372.6317138672</ele>
        <time>2013-08-01T16:11:45Z</time>
      </trkpt>
      <trkpt lat="44.93729" lon="6.57261">
        <ele>1370.6041259766</ele>
        <time>2013-08-01T16:11:48Z</time>
      </trkpt>
      <trkpt lat="44.93729" lon="6.57291">
        <ele>1369.0506591797</ele>
        <time>2013-08-01T16:11:50Z</time>
      </trkpt>
      <trkpt lat="44.93736" lon="6.57308">
        <ele>1367.9658203125</ele>
        <time>2013-08-01T16:11:52Z</time>
      </trkpt>
      <trkpt lat="44.93732" lon="6.57339">
        <ele>1367.1492919922</ele>
        <time>2013-08-01T16:11:54Z</time>
      </trkpt>
      <trkpt lat="44.93721" lon="6.57386">
        <ele>1366.3612060547</ele>
        <time>2013-08-01T16:11:58Z</time>
      </trkpt>
      <trkpt lat="44.9371" lon="6.57397">
        <ele>1368.1285400391</ele>
        <time>2013-08-01T16:12:02Z</time>
      </trkpt>
      <trkpt lat="44.93689" lon="6.57426">
        <ele>1370.9139404297</ele>
        <time>2013-08-01T16:12:06Z</time>
      </trkpt>
      <trkpt lat="44.93685" lon="6.57454">
        <ele>1369.572265625</ele>
        <time>2013-08-01T16:12:11Z</time>
      </trkpt>
      <trkpt lat="44.93682" lon="6.5748">
        <ele>1367.8487548828</ele>
        <time>2013-08-01T16:12:15Z</time>
      </trkpt>
      <trkpt lat="44.93674" lon="6.57495">
        <ele>1367.5020751953</ele>
        <time>2013-08-01T16:12:18Z</time>
      </trkpt>
      <trkpt lat="44.93675" lon="6.57512">
        <ele>1366.6824951172</ele>
        <time>2013-08-01T16:12:20Z</time>
      </trkpt>
      <trkpt lat="44.9366" lon="6.57562">
        <ele>1365.9770507812</ele>
        <time>2013-08-01T16:12:22Z</time>
      </trkpt>
      <trkpt lat="44.93645" lon="6.57634">
        <ele>1364.3020019531</ele>
        <time>2013-08-01T16:12:44Z</time>
      </trkpt>
      <trkpt lat="44.93628" lon="6.577">
        <ele>1365.0513916016</ele>
        <time>2013-08-01T16:13:04Z</time>
      </trkpt>
      <trkpt lat="44.93607" lon="6.57756">
        <ele>1370.6950683594</ele>
        <time>2013-08-01T16:13:29Z</time>
      </trkpt>
      <trkpt lat="44.93586" lon="6.57804">
        <ele>1373.533203125</ele>
        <time>2013-08-01T16:13:41Z</time>
      </trkpt>
      <trkpt lat="44.93585" lon="6.57853">
        <ele>1372.7916259766</ele>
        <time>2013-08-01T16:13:57Z</time>
      </trkpt>
      <trkpt lat="44.93569" lon="6.5791">
        <ele>1373.0604248047</ele>
        <time>2013-08-01T16:14:03Z</time>
      </trkpt>
      <trkpt lat="44.93548" lon="6.57953">
        <ele>1374.0122070312</ele>
        <time>2013-08-01T16:14:08Z</time>
      </trkpt>
      <trkpt lat="44.93546" lon="6.58029">
        <ele>1367.5727539062</ele>
        <time>2013-08-01T16:14:16Z</time>
      </trkpt>
      <trkpt lat="44.93532" lon="6.5808">
        <ele>1367.0985107422</ele>
        <time>2013-08-01T16:14:26Z</time>
      </trkpt>
      <trkpt lat="44.93519" lon="6.58111">
        <ele>1368.4217529297</ele>
        <time>2013-08-01T16:14:33Z</time>
      </trkpt>
      <trkpt lat="44.9351" lon="6.58138">
        <ele>1369.9213867188</ele>
        <time>2013-08-01T16:14:37Z</time>
      </trkpt>
      <trkpt lat="44.93497" lon="6.58174">
        <ele>1371.7644042969</ele>
        <time>2013-08-01T16:14:41Z</time>
      </trkpt>
      <trkpt lat="44.93489" lon="6.58212">
        <ele>1369.7647705078</ele>
        <time>2013-08-01T16:14:49Z</time>
      </trkpt>
      <trkpt lat="44.93485" lon="6.58245">
        <ele>1367.6536865234</ele>
        <time>2013-08-01T16:14:57Z</time>
      </trkpt>
      <trkpt lat="44.93475" lon="6.58274">
        <ele>1366.7307128906</ele>
        <time>2013-08-01T16:15:01Z</time>
      </trkpt>
      <trkpt lat="44.93458" lon="6.58304">
        <ele>1370.6975097656</ele>
        <time>2013-08-01T16:15:06Z</time>
      </trkpt>
      <trkpt lat="44.93447" lon="6.58332">
        <ele>1370.4235839844</ele>
        <time>2013-08-01T16:15:13Z</time>
      </trkpt>
      <trkpt lat="44.93438" lon="6.58359">
        <ele>1369.0848388672</ele>
        <time>2013-08-01T16:15:17Z</time>
      </trkpt>
      <trkpt lat="44.93425" lon="6.58375">
        <ele>1369.0360107422</ele>
        <time>2013-08-01T16:15:23Z</time>
      </trkpt>
      <trkpt lat="44.93402" lon="6.58394">
        <ele>1369.8642578125</ele>
        <time>2013-08-01T16:16:01Z</time>
      </trkpt>
      <trkpt lat="44.93382" lon="6.58394">
        <ele>1372.5075683594</ele>
        <time>2013-08-01T16:16:21Z</time>
      </trkpt>
      <trkpt lat="44.93363" lon="6.58418">
        <ele>1371.5229492188</ele>
        <time>2013-08-01T16:16:32Z</time>
      </trkpt>
      <trkpt lat="44.93347" lon="6.58453">
        <ele>1369.0034179688</ele>
        <time>2013-08-01T16:16:43Z</time>
      </trkpt>
      <trkpt lat="44.93319" lon="6.58501">
        <ele>1366.8425292969</ele>
        <time>2013-08-01T16:17:29Z</time>
      </trkpt>
      <trkpt lat="44.93264" lon="6.58529">
        <ele>1373.7338867188</ele>
        <time>2013-08-01T16:17:56Z</time>
      </trkpt>
      <trkpt lat="44.93233" lon="6.58554">
        <ele>1374.4697265625</ele>
        <time>2013-08-01T16:18:35Z</time>
      </trkpt>
      <trkpt lat="44.93196" lon="6.58608">
        <ele>1370.0867919922</ele>
        <time>2013-08-01T16:19:28Z</time>
      </trkpt>
      <trkpt lat="44.93165" lon="6.58658">
        <ele>1364.9205322266</ele>
        <time>2013-08-01T16:20:22Z</time>
      </trkpt>
      <trkpt lat="44.93121" lon="6.58704">
        <ele>1369.4291992188</ele>
        <time>2013-08-01T16:20:52Z</time>
      </trkpt>
      <trkpt lat="44.93112" lon="6.58741">
        <ele>1369.4278564453</ele>
        <time>2013-08-01T16:21:10Z</time>
      </trkpt>
      <trkpt lat="44.931" lon="6.58774">
        <ele>1368.0118408203</ele>
        <time>2013-08-01T16:21:50Z</time>
      </trkpt>
      <trkpt lat="44.93081" lon="6.58816">
        <ele>1367.2027587891</ele>
        <time>2013-08-01T16:22:31Z</time>
      </trkpt>
      <trkpt lat="44.9305" lon="6.58876">
        <ele>1364.1185302734</ele>
        <time>2013-08-01T16:23:03Z</time>
      </trkpt>
      <trkpt lat="44.93012" lon="6.589">
        <ele>1365.5170898438</ele>
        <time>2013-08-01T16:23:34Z</time>
      </trkpt>
      <trkpt lat="44.92979" lon="6.58935">
        <ele>1364.4001464844</ele>
        <time>2013-08-01T16:24:05Z</time>
      </trkpt>
      <trkpt lat="44.92955" lon="6.58954">
        <ele>1367.7575683594</ele>
        <time>2013-08-01T16:24:22Z</time>
      </trkpt>
      <trkpt lat="44.92971" lon="6.59">
        <ele>1355.5128173828</ele>
        <time>2013-08-01T16:24:29Z</time>
      </trkpt>
      <trkpt lat="44.9295" lon="6.59025">
        <ele>1358.0004882812</ele>
        <time>2013-08-01T16:24:35Z</time>
      </trkpt>
      <trkpt lat="44.92921" lon="6.59038">
        <ele>1362.9812011719</ele>
        <time>2013-08-01T16:24:43Z</time>
      </trkpt>
      <trkpt lat="44.92897" lon="6.59048">
        <ele>1364.9187011719</ele>
        <time>2013-08-01T16:24:58Z</time>
      </trkpt>
      <trkpt lat="44.92875" lon="6.59081">
        <ele>1362.3520507812</ele>
        <time>2013-08-01T16:25:06Z</time>
      </trkpt>
      <trkpt lat="44.92862" lon="6.59136">
        <ele>1354.4123535156</ele>
        <time>2013-08-01T16:25:11Z</time>
      </trkpt>
      <trkpt lat="44.92825" lon="6.59199">
        <ele>1355.5524902344</ele>
        <time>2013-08-01T16:25:16Z</time>
      </trkpt>
      <trkpt lat="44.92792" lon="6.59248">
        <ele>1353.7139892578</ele>
        <time>2013-08-01T16:25:21Z</time>
      </trkpt>
      <trkpt lat="44.92758" lon="6.5931">
        <ele>1351.6354980469</ele>
        <time>2013-08-01T16:25:27Z</time>
      </trkpt>
      <trkpt lat="44.92722" lon="6.59351">
        <ele>1359.5463867188</ele>
        <time>2013-08-01T16:25:29Z</time>
      </trkpt>
      <trkpt lat="44.92687" lon="6.59398">
        <ele>1359.5974121094</ele>
        <time>2013-08-01T16:25:32Z</time>
      </trkpt>
      <trkpt lat="44.92654" lon="6.59445">
        <ele>1358.3868408203</ele>
        <time>2013-08-01T16:25:34Z</time>
      </trkpt>
      <trkpt lat="44.92622" lon="6.59508">
        <ele>1355.3824462891</ele>
        <time>2013-08-01T16:25:36Z</time>
      </trkpt>
      <trkpt lat="44.92597" lon="6.59559">
        <ele>1353.5633544922</ele>
        <time>2013-08-01T16:25:38Z</time>
      </trkpt>
      <trkpt lat="44.92562" lon="6.59633">
        <ele>1353.6173095703</ele>
        <time>2013-08-01T16:25:41Z</time>
      </trkpt>
      <trkpt lat="44.92518" lon="6.59694">
        <ele>1356.7996826172</ele>
        <time>2013-08-01T16:25:43Z</time>
      </trkpt>
      <trkpt lat="44.92484" lon="6.59769">
        <ele>1355.4963378906</ele>
        <time>2013-08-01T16:25:45Z</time>
      </trkpt>
      <trkpt lat="44.92461" lon="6.59835">
        <ele>1352.9721679688</ele>
        <time>2013-08-01T16:25:46Z</time>
      </trkpt>
      <trkpt lat="44.92442" lon="6.5987">
        <ele>1355.6077880859</ele>
        <time>2013-08-01T16:25:46Z</time>
      </trkpt>
      <trkpt lat="44.92415" lon="6.59949">
        <ele>1350.6196289062</ele>
        <time>2013-08-01T16:25:46Z</time>
      </trkpt>
      <trkpt lat="44.92443" lon="6.59882">
        <ele>1352.3929443359</ele>
        <time>2013-08-01T16:25:46Z</time>
      </trkpt>
      <trkpt lat="44.92437" lon="6.59948">
        <ele>1340.5078125</ele>
        <time>2013-08-01T16:25:46Z</time>
      </trkpt>
      <trkpt lat="44.92433" lon="6.6003">
        <ele>1326.0708007812</ele>
        <time>2013-08-01T16:25:46Z</time>
      </trkpt>
      <trkpt lat="44.92448" lon="6.60096">
        <ele>1314.4360351562</ele>
        <time>2013-08-01T16:25:46Z</time>
      </trkpt>
      <trkpt lat="44.92466" lon="6.60109">
        <ele>1310.9395751953</ele>
        <time>2013-08-01T16:25:46Z</time>
      </trkpt>
      <trkpt lat="44.92453" lon="6.60101">
        <ele>1313.3491210938</ele>
        <time>2013-08-01T16:25:46Z</time>
      </trkpt>
      <trkpt lat="44.92432" lon="6.6013">
        <ele>1315.7686767578</ele>
        <time>2013-08-01T16:25:46Z</time>
      </trkpt>
      <trkpt lat="44.92396" lon="6.60186">
        <ele>1317.0274658203</ele>
        <time>2013-08-01T16:25:46Z</time>
      </trkpt>
      <trkpt lat="44.92348" lon="6.60253">
        <ele>1315.2469482422</ele>
        <time>2013-08-01T16:25:46Z</time>
      </trkpt>
      <trkpt lat="44.92327" lon="6.60303">
        <ele>1311.9725341797</ele>
        <time>2013-08-01T16:25:46Z</time>
      </trkpt>
      <trkpt lat="44.92309" lon="6.6034">
        <ele>1310.4190673828</ele>
        <time>2013-08-01T16:25:46Z</time>
      </trkpt>
      <trkpt lat="44.92308" lon="6.60391">
        <ele>1306.9610595703</ele>
        <time>2013-08-01T16:25:46Z</time>
      </trkpt>
      <trkpt lat="44.92298" lon="6.60454">
        <ele>1304.4080810547</ele>
        <time>2013-08-01T16:25:46Z</time>
      </trkpt>
      <trkpt lat="44.9229" lon="6.60501">
        <ele>1302.7890625</ele>
        <time>2013-08-01T16:25:46Z</time>
      </trkpt>
      <trkpt lat="44.92245" lon="6.60607">
        <ele>1306.353515625</ele>
        <time>2013-08-01T16:25:46Z</time>
      </trkpt>
      <trkpt lat="44.92215" lon="6.6064">
        <ele>1312.9129638672</ele>
        <time>2013-08-01T16:25:46Z</time>
      </trkpt>
      <trkpt lat="44.92178" lon="6.60724">
        <ele>1308.1529541016</ele>
        <time>2013-08-01T16:25:46Z</time>
      </trkpt>
      <trkpt lat="44.92134" lon="6.60793">
        <ele>1305.9914550781</ele>
        <time>2013-08-01T16:25:46Z</time>
      </trkpt>
      <trkpt lat="44.92089" lon="6.60844">
        <ele>1304.7145996094</ele>
        <time>2013-08-01T16:25:46Z</time>
      </trkpt>
      <trkpt lat="44.92041" lon="6.60897">
        <ele>1310.2095947266</ele>
        <time>2013-08-01T16:25:46Z</time>
      </trkpt>
      <trkpt lat="44.92002" lon="6.60971">
        <ele>1306.1304931641</ele>
        <time>2013-08-01T16:25:46Z</time>
      </trkpt>
      <trkpt lat="44.91986" lon="6.61019">
        <ele>1302.2327880859</ele>
        <time>2013-08-01T16:25:46Z</time>
      </trkpt>
      <trkpt lat="44.91945" lon="6.61069">
        <ele>1307.7453613281</ele>
        <time>2013-08-01T16:25:46Z</time>
      </trkpt>
      <trkpt lat="44.9191" lon="6.61134">
        <ele>1307.0018310547</ele>
        <time>2013-08-01T16:25:46Z</time>
      </trkpt>
      <trkpt lat="44.91869" lon="6.61209">
        <ele>1302.8455810547</ele>
        <time>2013-08-01T16:25:46Z</time>
      </trkpt>
      <trkpt lat="44.91819" lon="6.61263">
        <ele>1303.8331298828</ele>
        <time>2013-08-01T16:25:46Z</time>
      </trkpt>
      <trkpt lat="44.91763" lon="6.61314">
        <ele>1307.1860351562</ele>
        <time>2013-08-01T16:25:46Z</time>
      </trkpt>
      <trkpt lat="44.91716" lon="6.61346">
        <ele>1308.1138916016</ele>
        <time>2013-08-01T16:25:46Z</time>
      </trkpt>
      <trkpt lat="44.91684" lon="6.61377">
        <ele>1305.7769775391</ele>
        <time>2013-08-01T16:25:46Z</time>
      </trkpt>
      <trkpt lat="44.91649" lon="6.61448">
        <ele>1300.8619384766</ele>
        <time>2013-08-01T16:25:46Z</time>
      </trkpt>
      <trkpt lat="44.91585" lon="6.61501">
        <ele>1314.8548583984</ele>
        <time>2013-08-01T16:25:46Z</time>
      </trkpt>
      <trkpt lat="44.91544" lon="6.61576">
        <ele>1307.4982910156</ele>
        <time>2013-08-01T16:25:46Z</time>
      </trkpt>
      <trkpt lat="44.91516" lon="6.61623">
        <ele>1307.5798339844</ele>
        <time>2013-08-01T16:25:46Z</time>
      </trkpt>
      <trkpt lat="44.91461" lon="6.61658">
        <ele>1304.7478027344</ele>
        <time>2013-08-01T16:25:46Z</time>
      </trkpt>
      <trkpt lat="44.91425" lon="6.61652">
        <ele>1305.2999267578</ele>
        <time>2013-08-01T16:25:46Z</time>
      </trkpt>
      <trkpt lat="44.91383" lon="6.61713">
        <ele>1294.9846191406</ele>
        <time>2013-08-01T16:25:46Z</time>
      </trkpt>
      <trkpt lat="44.91343" lon="6.61746">
        <ele>1296.16796875</ele>
        <time>2013-08-01T16:25:46Z</time>
      </trkpt>
      <trkpt lat="44.91296" lon="6.61817">
        <ele>1290.4194335938</ele>
        <time>2013-08-01T16:25:46Z</time>
      </trkpt>
      <trkpt lat="44.91251" lon="6.61848">
        <ele>1293.369140625</ele>
        <time>2013-08-01T16:25:46Z</time>
      </trkpt>
      <trkpt lat="44.912" lon="6.61858">
        <ele>1296.3929443359</ele>
        <time>2013-08-01T16:25:46Z</time>
      </trkpt>
      <trkpt lat="44.91177" lon="6.61872">
        <ele>1294.1468505859</ele>
        <time>2013-08-01T16:25:46Z</time>
      </trkpt>
      <trkpt lat="44.91169" lon="6.61894">
        <ele>1288.5415039062</ele>
        <time>2013-08-01T16:25:46Z</time>
      </trkpt>
      <trkpt lat="44.91204" lon="6.61904">
        <ele>1284.0916748047</ele>
        <time>2013-08-01T16:25:46Z</time>
      </trkpt>
      <trkpt lat="44.91189" lon="6.6194">
        <ele>1275.6256103516</ele>
        <time>2013-08-01T16:25:46Z</time>
      </trkpt>
      <trkpt lat="44.91153" lon="6.61977">
        <ele>1267.8095703125</ele>
        <time>2013-08-01T16:25:46Z</time>
      </trkpt>
      <trkpt lat="44.91104" lon="6.61994">
        <ele>1265.4124755859</ele>
        <time>2013-08-01T16:25:46Z</time>
      </trkpt>
      <trkpt lat="44.91058" lon="6.62004">
        <ele>1267.5302734375</ele>
        <time>2013-08-01T16:25:46Z</time>
      </trkpt>
      <trkpt lat="44.9102" lon="6.6205">
        <ele>1260.4403076172</ele>
        <time>2013-08-01T16:25:46Z</time>
      </trkpt>
      <trkpt lat="44.90999" lon="6.62101">
        <ele>1251.7996826172</ele>
        <time>2013-08-01T16:25:46Z</time>
      </trkpt>
      <trkpt lat="44.90989" lon="6.62152">
        <ele>1244.0759277344</ele>
        <time>2013-08-01T16:25:46Z</time>
      </trkpt>
      <trkpt lat="44.91003" lon="6.62168">
        <ele>1243.7893066406</ele>
        <time>2013-08-01T16:25:46Z</time>
      </trkpt>
      <trkpt lat="44.90991" lon="6.62152">
        <ele>1244.0892333984</ele>
        <time>2013-08-01T16:25:46Z</time>
      </trkpt>
      <trkpt lat="44.90949" lon="6.6222">
        <ele>1240</ele>
        <time>2013-08-01T16:25:46Z</time>
      </trkpt>
      <trkpt lat="44.90918" lon="6.62279">
        <ele>1240</ele>
        <time>2013-08-01T16:25:46Z</time>
      </trkpt>
      <trkpt lat="44.90916" lon="6.62311">
        <ele>1240</ele>
        <time>2013-08-01T16:25:46Z</time>
      </trkpt>
      <trkpt lat="44.90903" lon="6.62376">
        <ele>1240</ele>
        <time>2013-08-01T16:25:46Z</time>
      </trkpt>
      <trkpt lat="44.90878" lon="6.62427">
        <ele>1239.4532470703</ele>
        <time>2013-08-01T16:25:46Z</time>
      </trkpt>
      <trkpt lat="44.90801" lon="6.62496">
        <ele>1234.8471679688</ele>
        <time>2013-08-01T16:25:46Z</time>
      </trkpt>
      <trkpt lat="44.90726" lon="6.62549">
        <ele>1230.4885253906</ele>
        <time>2013-08-01T16:25:46Z</time>
      </trkpt>
      <trkpt lat="44.90649" lon="6.62632">
        <ele>1231.0803222656</ele>
        <time>2013-08-01T16:25:46Z</time>
      </trkpt>
      <trkpt lat="44.90608" lon="6.627">
        <ele>1230.2937011719</ele>
        <time>2013-08-01T16:25:46Z</time>
      </trkpt>
      <trkpt lat="44.90577" lon="6.62737">
        <ele>1233.3658447266</ele>
        <time>2013-08-01T16:25:46Z</time>
      </trkpt>
      <trkpt lat="44.90599" lon="6.62716">
        <ele>1232.3680419922</ele>
        <time>2013-08-01T16:25:46Z</time>
      </trkpt>
      <trkpt lat="44.90549" lon="6.62713">
        <ele>1226.9174804688</ele>
        <time>2013-08-01T16:25:46Z</time>
      </trkpt>
      <trkpt lat="44.90509" lon="6.62703">
        <ele>1224.3723144531</ele>
        <time>2013-08-01T16:25:46Z</time>
      </trkpt>
      <trkpt lat="44.90472" lon="6.62698">
        <ele>1222.4606933594</ele>
        <time>2013-08-01T16:25:46Z</time>
      </trkpt>
      <trkpt lat="44.90425" lon="6.62692">
        <ele>1222.8564453125</ele>
        <time>2013-08-01T16:25:46Z</time>
      </trkpt>
      <trkpt lat="44.90399" lon="6.62667">
        <ele>1220.1551513672</ele>
        <time>2013-08-01T16:25:46Z</time>
      </trkpt>
      <trkpt lat="44.90388" lon="6.62653">
        <ele>1220.0828857422</ele>
        <time>2013-08-01T16:25:46Z</time>
      </trkpt>
      <trkpt lat="44.90319" lon="6.62622">
        <ele>1226.9820556641</ele>
        <time>2013-08-01T16:25:46Z</time>
      </trkpt>
      <trkpt lat="44.90236" lon="6.62606">
        <ele>1222.8739013672</ele>
        <time>2013-08-01T16:25:46Z</time>
      </trkpt>
      <trkpt lat="44.90173" lon="6.626">
        <ele>1223.3868408203</ele>
        <time>2013-08-01T16:25:46Z</time>
      </trkpt>
      <trkpt lat="44.90144" lon="6.6262">
        <ele>1220.6193847656</ele>
        <time>2013-08-01T16:25:46Z</time>
      </trkpt>
      <trkpt lat="44.90129" lon="6.62702">
        <ele>1228.6014404297</ele>
        <time>2013-08-01T16:25:46Z</time>
      </trkpt>
      <trkpt lat="44.90105" lon="6.6274">
        <ele>1224.888671875</ele>
        <time>2013-08-01T16:25:46Z</time>
      </trkpt>
      <trkpt lat="44.9007" lon="6.62747">
        <ele>1220</ele>
        <time>2013-08-01T16:25:46Z</time>
      </trkpt>
      <trkpt lat="44.90034" lon="6.62734">
        <ele>1220</ele>
        <time>2013-08-01T16:25:46Z</time>
      </trkpt>
      <trkpt lat="44.89999" lon="6.62738">
        <ele>1219.8721923828</ele>
        <time>2013-08-01T16:25:46Z</time>
      </trkpt>
      <trkpt lat="44.89967" lon="6.62782">
        <ele>1220.7803955078</ele>
        <time>2013-08-01T16:25:46Z</time>
      </trkpt>
      <trkpt lat="44.89951" lon="6.62815">
        <ele>1219.3494873047</ele>
        <time>2013-08-01T16:25:46Z</time>
      </trkpt>
      <trkpt lat="44.89924" lon="6.62835">
        <ele>1212.4278564453</ele>
        <time>2013-08-01T16:25:46Z</time>
      </trkpt>
      <trkpt lat="44.89901" lon="6.62844">
        <ele>1210.1638183594</ele>
        <time>2013-08-01T16:25:46Z</time>
      </trkpt>
      <trkpt lat="44.89869" lon="6.62873">
        <ele>1210</ele>
        <time>2013-08-01T16:25:46Z</time>
      </trkpt>
      <trkpt lat="44.89858" lon="6.629">
        <ele>1210</ele>
        <time>2013-08-01T16:25:46Z</time>
      </trkpt>
      <trkpt lat="44.89874" lon="6.62928">
        <ele>1211.2275390625</ele>
        <time>2013-08-01T16:25:46Z</time>
      </trkpt>
      <trkpt lat="44.89893" lon="6.62951">
        <ele>1212.220703125</ele>
        <time>2013-08-01T16:25:46Z</time>
      </trkpt>
      <trkpt lat="44.89888" lon="6.62968">
        <ele>1210.2633056641</ele>
        <time>2013-08-01T16:25:46Z</time>
      </trkpt>
      <trkpt lat="44.89901" lon="6.63001">
        <ele>1212.1746826172</ele>
        <time>2013-08-01T16:25:46Z</time>
      </trkpt>
      <trkpt lat="44.89894" lon="6.63031">
        <ele>1211.0073242188</ele>
        <time>2013-08-01T16:25:46Z</time>
      </trkpt>
      <trkpt lat="44.89893" lon="6.63093">
        <ele>1210.7834472656</ele>
        <time>2013-08-01T16:25:46Z</time>
      </trkpt>
      <trkpt lat="44.89884" lon="6.63116">
        <ele>1210.1597900391</ele>
        <time>2013-08-01T16:25:46Z</time>
      </trkpt>
      <trkpt lat="44.8987" lon="6.63129">
        <ele>1210.1983642578</ele>
        <time>2013-08-01T16:25:46Z</time>
      </trkpt>
      <trkpt lat="44.8987" lon="6.63142">
        <ele>1210.3708496094</ele>
        <time>2013-08-01T16:25:46Z</time>
      </trkpt>
      <trkpt lat="44.89868" lon="6.63149">
        <ele>1210.4392089844</ele>
        <time>2013-08-01T16:25:46Z</time>
      </trkpt>
      <trkpt lat="44.89887" lon="6.6316">
        <ele>1212.3189697266</ele>
        <time>2013-08-01T16:25:46Z</time>
      </trkpt>
      <trkpt lat="44.8992" lon="6.63166">
        <ele>1218.9331054688</ele>
        <time>2013-08-01T16:25:46Z</time>
      </trkpt>
      <trkpt lat="44.8994" lon="6.63159">
        <ele>1224.87109375</ele>
        <time>2013-08-01T16:25:46Z</time>
      </trkpt>
      <trkpt lat="44.89938" lon="6.63173">
        <ele>1224.5072021484</ele>
        <time>2013-08-01T16:25:46Z</time>
      </trkpt>
      <trkpt lat="44.89901" lon="6.63197">
        <ele>1216.8377685547</ele>
        <time>2013-08-01T16:25:46Z</time>
      </trkpt>
      <trkpt lat="44.89871" lon="6.63227">
        <ele>1213.3695068359</ele>
        <time>2013-08-01T16:25:46Z</time>
      </trkpt>
      <trkpt lat="44.89851" lon="6.63247">
        <ele>1211.5541992188</ele>
        <time>2013-08-01T16:25:46Z</time>
      </trkpt>
      <trkpt lat="44.89852" lon="6.63277">
        <ele>1213.6009521484</ele>
        <time>2013-08-01T16:25:46Z</time>
      </trkpt>
      <trkpt lat="44.89856" lon="6.63334">
        <ele>1216.8753662109</ele>
        <time>2013-08-01T16:25:46Z</time>
      </trkpt>
      <trkpt lat="44.89854" lon="6.63355">
        <ele>1218.3413085938</ele>
        <time>2013-08-01T16:25:46Z</time>
      </trkpt>
      <trkpt lat="44.89872" lon="6.63414">
        <ele>1219</ele>
        <time>2013-08-01T16:25:46Z</time>
      </trkpt>
      <trkpt lat="44.89891" lon="6.63397">
        <ele>1219.1016845703</ele>
        <time>2013-08-01T16:25:46Z</time>
      </trkpt>
      <trkpt lat="44.89924" lon="6.63364">
        <ele>1220.2727050781</ele>
        <time>2013-08-01T16:25:46Z</time>
      </trkpt>
      <trkpt lat="44.89959" lon="6.63338">
        <ele>1222.3699951172</ele>
        <time>2013-08-01T16:25:46Z</time>
      </trkpt>
      <trkpt lat="44.89979" lon="6.63333">
        <ele>1223.2557373047</ele>
        <time>2013-08-01T16:25:46Z</time>
      </trkpt>
      <trkpt lat="44.90019" lon="6.63413">
        <ele>1224.5618896484</ele>
        <time>2013-08-01T16:25:46Z</time>
      </trkpt>
    </trkseg>
  </trk>
</gpx>